<?xml version="1.0" encoding="UTF-8" standalone="no" ?>
<gpx xmlns="http://www.topografix.com/GPX/1/1" xmlns:xsi="http://www.w3.org/2001/XMLSchema-instance" xsi:schemaLocation="http://www.topografix.com/GPX/1/1 http://www.topografix.com/GPX/1/1/gpx.xsd" version="1.1" creator="VisuGPX - https://www.visugpx.com">
  <metadata>
    <name>83-D-Bormes les Mimosas</name>
    <desc><![CDATA[83-D-Bormes les Mimosas : ND de Constance]]></desc>
  </metadata>
  <trk>
    <name><![CDATA[2017-10-08-D-bormes]]></name>
    <trkseg>
      <trkpt lat="43.1508" lon="6.34489">
        <ele>157.1</ele>
        <time>2017-10-08T07:28:35Z</time>
      </trkpt>
      <trkpt lat="43.1508" lon="6.34489">
        <ele>157.2</ele>
        <time>2017-10-08T07:28:36Z</time>
      </trkpt>
      <trkpt lat="43.15085" lon="6.345">
        <ele>156.7</ele>
        <time>2017-10-08T07:30:02Z</time>
      </trkpt>
      <trkpt lat="43.15092" lon="6.34492">
        <ele>156.4</ele>
        <time>2017-10-08T07:34:41Z</time>
      </trkpt>
      <trkpt lat="43.15101" lon="6.34487">
        <ele>156.4</ele>
        <time>2017-10-08T07:34:49Z</time>
      </trkpt>
      <trkpt lat="43.1511" lon="6.34489">
        <ele>156.1</ele>
        <time>2017-10-08T07:34:59Z</time>
      </trkpt>
      <trkpt lat="43.15119" lon="6.34487">
        <ele>157.6</ele>
        <time>2017-10-08T07:35:10Z</time>
      </trkpt>
      <trkpt lat="43.15125" lon="6.34477">
        <ele>158.9</ele>
        <time>2017-10-08T07:35:21Z</time>
      </trkpt>
      <trkpt lat="43.15133" lon="6.34482">
        <ele>161</ele>
        <time>2017-10-08T07:36:21Z</time>
      </trkpt>
      <trkpt lat="43.15141" lon="6.34488">
        <ele>161.5</ele>
        <time>2017-10-08T07:36:36Z</time>
      </trkpt>
      <trkpt lat="43.15149" lon="6.34497">
        <ele>162</ele>
        <time>2017-10-08T07:36:44Z</time>
      </trkpt>
      <trkpt lat="43.15156" lon="6.34504">
        <ele>162.3</ele>
        <time>2017-10-08T07:36:52Z</time>
      </trkpt>
      <trkpt lat="43.15165" lon="6.34511">
        <ele>162.7</ele>
        <time>2017-10-08T07:36:58Z</time>
      </trkpt>
      <trkpt lat="43.15171" lon="6.34521">
        <ele>163.3</ele>
        <time>2017-10-08T07:37:07Z</time>
      </trkpt>
      <trkpt lat="43.15178" lon="6.34532">
        <ele>164.3</ele>
        <time>2017-10-08T07:37:18Z</time>
      </trkpt>
      <trkpt lat="43.15185" lon="6.3454">
        <ele>164.5</ele>
        <time>2017-10-08T07:37:28Z</time>
      </trkpt>
      <trkpt lat="43.15193" lon="6.34546">
        <ele>165.3</ele>
        <time>2017-10-08T07:37:35Z</time>
      </trkpt>
      <trkpt lat="43.15201" lon="6.34555">
        <ele>166.1</ele>
        <time>2017-10-08T07:37:44Z</time>
      </trkpt>
      <trkpt lat="43.15209" lon="6.34563">
        <ele>167</ele>
        <time>2017-10-08T07:37:52Z</time>
      </trkpt>
      <trkpt lat="43.15218" lon="6.34569">
        <ele>167.4</ele>
        <time>2017-10-08T07:38:01Z</time>
      </trkpt>
      <trkpt lat="43.15228" lon="6.34569">
        <ele>168.2</ele>
        <time>2017-10-08T07:38:09Z</time>
      </trkpt>
      <trkpt lat="43.15237" lon="6.34566">
        <ele>168.6</ele>
        <time>2017-10-08T07:38:17Z</time>
      </trkpt>
      <trkpt lat="43.15246" lon="6.34564">
        <ele>169.5</ele>
        <time>2017-10-08T07:38:31Z</time>
      </trkpt>
      <trkpt lat="43.15254" lon="6.34558">
        <ele>170.3</ele>
        <time>2017-10-08T07:38:44Z</time>
      </trkpt>
      <trkpt lat="43.15264" lon="6.34558">
        <ele>170.6</ele>
        <time>2017-10-08T07:38:50Z</time>
      </trkpt>
      <trkpt lat="43.15274" lon="6.34555">
        <ele>171.3</ele>
        <time>2017-10-08T07:38:57Z</time>
      </trkpt>
      <trkpt lat="43.15283" lon="6.3455">
        <ele>171.9</ele>
        <time>2017-10-08T07:39:06Z</time>
      </trkpt>
      <trkpt lat="43.15293" lon="6.34548">
        <ele>172.5</ele>
        <time>2017-10-08T07:39:13Z</time>
      </trkpt>
      <trkpt lat="43.153" lon="6.3454">
        <ele>173.3</ele>
        <time>2017-10-08T07:39:22Z</time>
      </trkpt>
      <trkpt lat="43.15309" lon="6.34533">
        <ele>174.1</ele>
        <time>2017-10-08T07:39:32Z</time>
      </trkpt>
      <trkpt lat="43.15317" lon="6.34526">
        <ele>175</ele>
        <time>2017-10-08T07:39:42Z</time>
      </trkpt>
      <trkpt lat="43.15326" lon="6.34526">
        <ele>175.8</ele>
        <time>2017-10-08T07:39:50Z</time>
      </trkpt>
      <trkpt lat="43.15335" lon="6.3453">
        <ele>176.4</ele>
        <time>2017-10-08T07:39:56Z</time>
      </trkpt>
      <trkpt lat="43.15345" lon="6.34532">
        <ele>176.8</ele>
        <time>2017-10-08T07:40:03Z</time>
      </trkpt>
      <trkpt lat="43.15355" lon="6.34533">
        <ele>177.3</ele>
        <time>2017-10-08T07:40:11Z</time>
      </trkpt>
      <trkpt lat="43.15364" lon="6.34532">
        <ele>178.5</ele>
        <time>2017-10-08T07:40:19Z</time>
      </trkpt>
      <trkpt lat="43.15373" lon="6.34529">
        <ele>179.5</ele>
        <time>2017-10-08T07:40:29Z</time>
      </trkpt>
      <trkpt lat="43.15383" lon="6.34529">
        <ele>179.7</ele>
        <time>2017-10-08T07:40:36Z</time>
      </trkpt>
      <trkpt lat="43.15392" lon="6.34531">
        <ele>180.3</ele>
        <time>2017-10-08T07:40:43Z</time>
      </trkpt>
      <trkpt lat="43.15401" lon="6.34531">
        <ele>180.8</ele>
        <time>2017-10-08T07:40:49Z</time>
      </trkpt>
      <trkpt lat="43.1541" lon="6.34534">
        <ele>181.5</ele>
        <time>2017-10-08T07:40:57Z</time>
      </trkpt>
      <trkpt lat="43.15419" lon="6.34534">
        <ele>182.7</ele>
        <time>2017-10-08T07:41:08Z</time>
      </trkpt>
      <trkpt lat="43.15427" lon="6.34541">
        <ele>183.1</ele>
        <time>2017-10-08T07:41:26Z</time>
      </trkpt>
      <trkpt lat="43.15434" lon="6.34549">
        <ele>183.3</ele>
        <time>2017-10-08T07:41:34Z</time>
      </trkpt>
      <trkpt lat="43.15442" lon="6.34556">
        <ele>184</ele>
        <time>2017-10-08T07:41:43Z</time>
      </trkpt>
      <trkpt lat="43.1545" lon="6.34563">
        <ele>184.8</ele>
        <time>2017-10-08T07:41:51Z</time>
      </trkpt>
      <trkpt lat="43.15459" lon="6.3457">
        <ele>185.7</ele>
        <time>2017-10-08T07:42:01Z</time>
      </trkpt>
      <trkpt lat="43.15467" lon="6.34575">
        <ele>186.5</ele>
        <time>2017-10-08T07:42:10Z</time>
      </trkpt>
      <trkpt lat="43.15477" lon="6.34577">
        <ele>187.3</ele>
        <time>2017-10-08T07:42:29Z</time>
      </trkpt>
      <trkpt lat="43.15486" lon="6.34583">
        <ele>187.9</ele>
        <time>2017-10-08T07:42:37Z</time>
      </trkpt>
      <trkpt lat="43.15496" lon="6.34589">
        <ele>188.7</ele>
        <time>2017-10-08T07:42:44Z</time>
      </trkpt>
      <trkpt lat="43.15505" lon="6.34593">
        <ele>189.3</ele>
        <time>2017-10-08T07:42:51Z</time>
      </trkpt>
      <trkpt lat="43.15514" lon="6.34598">
        <ele>189.7</ele>
        <time>2017-10-08T07:42:59Z</time>
      </trkpt>
      <trkpt lat="43.15521" lon="6.34605">
        <ele>190.8</ele>
        <time>2017-10-08T07:43:08Z</time>
      </trkpt>
      <trkpt lat="43.1553" lon="6.34608">
        <ele>191.3</ele>
        <time>2017-10-08T07:43:16Z</time>
      </trkpt>
      <trkpt lat="43.15535" lon="6.34619">
        <ele>191.8</ele>
        <time>2017-10-08T07:43:25Z</time>
      </trkpt>
      <trkpt lat="43.1554" lon="6.3463">
        <ele>192.1</ele>
        <time>2017-10-08T07:43:33Z</time>
      </trkpt>
      <trkpt lat="43.1554" lon="6.34644">
        <ele>192.6</ele>
        <time>2017-10-08T07:43:41Z</time>
      </trkpt>
      <trkpt lat="43.15545" lon="6.34655">
        <ele>193.2</ele>
        <time>2017-10-08T07:43:48Z</time>
      </trkpt>
      <trkpt lat="43.15545" lon="6.34668">
        <ele>193.9</ele>
        <time>2017-10-08T07:43:58Z</time>
      </trkpt>
      <trkpt lat="43.15542" lon="6.3468">
        <ele>194.3</ele>
        <time>2017-10-08T07:44:08Z</time>
      </trkpt>
      <trkpt lat="43.15545" lon="6.34695">
        <ele>194.7</ele>
        <time>2017-10-08T07:44:15Z</time>
      </trkpt>
      <trkpt lat="43.15549" lon="6.34708">
        <ele>194.8</ele>
        <time>2017-10-08T07:44:22Z</time>
      </trkpt>
      <trkpt lat="43.15558" lon="6.34714">
        <ele>194.9</ele>
        <time>2017-10-08T07:44:29Z</time>
      </trkpt>
      <trkpt lat="43.15567" lon="6.34714">
        <ele>195</ele>
        <time>2017-10-08T07:44:39Z</time>
      </trkpt>
      <trkpt lat="43.15576" lon="6.34711">
        <ele>194.4</ele>
        <time>2017-10-08T07:48:44Z</time>
      </trkpt>
      <trkpt lat="43.15583" lon="6.34703">
        <ele>194.3</ele>
        <time>2017-10-08T07:49:02Z</time>
      </trkpt>
      <trkpt lat="43.15589" lon="6.34693">
        <ele>194.1</ele>
        <time>2017-10-08T07:49:19Z</time>
      </trkpt>
      <trkpt lat="43.15596" lon="6.34684">
        <ele>193.9</ele>
        <time>2017-10-08T07:49:33Z</time>
      </trkpt>
      <trkpt lat="43.15602" lon="6.34673">
        <ele>193.8</ele>
        <time>2017-10-08T07:49:43Z</time>
      </trkpt>
      <trkpt lat="43.15609" lon="6.34664">
        <ele>193.4</ele>
        <time>2017-10-08T07:49:53Z</time>
      </trkpt>
      <trkpt lat="43.15616" lon="6.34656">
        <ele>192.7</ele>
        <time>2017-10-08T07:50:04Z</time>
      </trkpt>
      <trkpt lat="43.15627" lon="6.34652">
        <ele>192.3</ele>
        <time>2017-10-08T07:50:14Z</time>
      </trkpt>
      <trkpt lat="43.15634" lon="6.34646">
        <ele>192</ele>
        <time>2017-10-08T07:50:23Z</time>
      </trkpt>
      <trkpt lat="43.15644" lon="6.34642">
        <ele>191.7</ele>
        <time>2017-10-08T07:50:32Z</time>
      </trkpt>
      <trkpt lat="43.15653" lon="6.34637">
        <ele>191.3</ele>
        <time>2017-10-08T07:50:40Z</time>
      </trkpt>
      <trkpt lat="43.15662" lon="6.34631">
        <ele>190.7</ele>
        <time>2017-10-08T07:50:49Z</time>
      </trkpt>
      <trkpt lat="43.15669" lon="6.34623">
        <ele>190.1</ele>
        <time>2017-10-08T07:50:58Z</time>
      </trkpt>
      <trkpt lat="43.15677" lon="6.34614">
        <ele>189.4</ele>
        <time>2017-10-08T07:51:09Z</time>
      </trkpt>
      <trkpt lat="43.15686" lon="6.34609">
        <ele>189</ele>
        <time>2017-10-08T07:51:18Z</time>
      </trkpt>
      <trkpt lat="43.15695" lon="6.34606">
        <ele>188.6</ele>
        <time>2017-10-08T07:51:27Z</time>
      </trkpt>
      <trkpt lat="43.15703" lon="6.34613">
        <ele>187.7</ele>
        <time>2017-10-08T07:51:40Z</time>
      </trkpt>
      <trkpt lat="43.15709" lon="6.34623">
        <ele>187.5</ele>
        <time>2017-10-08T07:51:50Z</time>
      </trkpt>
      <trkpt lat="43.15717" lon="6.34626">
        <ele>186.7</ele>
        <time>2017-10-08T07:51:58Z</time>
      </trkpt>
      <trkpt lat="43.15727" lon="6.34626">
        <ele>186.2</ele>
        <time>2017-10-08T07:52:05Z</time>
      </trkpt>
      <trkpt lat="43.15736" lon="6.34624">
        <ele>185.9</ele>
        <time>2017-10-08T07:52:13Z</time>
      </trkpt>
      <trkpt lat="43.15745" lon="6.3462">
        <ele>185.8</ele>
        <time>2017-10-08T07:52:19Z</time>
      </trkpt>
      <trkpt lat="43.15753" lon="6.34614">
        <ele>185.8</ele>
        <time>2017-10-08T07:52:25Z</time>
      </trkpt>
      <trkpt lat="43.15762" lon="6.34609">
        <ele>185.1</ele>
        <time>2017-10-08T07:52:34Z</time>
      </trkpt>
      <trkpt lat="43.1577" lon="6.34604">
        <ele>183.8</ele>
        <time>2017-10-08T07:52:47Z</time>
      </trkpt>
      <trkpt lat="43.1578" lon="6.34605">
        <ele>183</ele>
        <time>2017-10-08T07:53:00Z</time>
      </trkpt>
      <trkpt lat="43.15776" lon="6.34617">
        <ele>182.4</ele>
        <time>2017-10-08T07:53:18Z</time>
      </trkpt>
      <trkpt lat="43.15779" lon="6.3463">
        <ele>182.5</ele>
        <time>2017-10-08T07:53:27Z</time>
      </trkpt>
      <trkpt lat="43.15783" lon="6.34642">
        <ele>182.8</ele>
        <time>2017-10-08T07:53:36Z</time>
      </trkpt>
      <trkpt lat="43.15782" lon="6.34654">
        <ele>182.4</ele>
        <time>2017-10-08T07:53:45Z</time>
      </trkpt>
      <trkpt lat="43.15776" lon="6.34665">
        <ele>181.9</ele>
        <time>2017-10-08T07:53:54Z</time>
      </trkpt>
      <trkpt lat="43.15766" lon="6.34663">
        <ele>181.8</ele>
        <time>2017-10-08T07:54:01Z</time>
      </trkpt>
      <trkpt lat="43.15758" lon="6.34668">
        <ele>182.3</ele>
        <time>2017-10-08T07:54:12Z</time>
      </trkpt>
      <trkpt lat="43.15749" lon="6.34674">
        <ele>182.1</ele>
        <time>2017-10-08T07:54:22Z</time>
      </trkpt>
      <trkpt lat="43.15741" lon="6.34681">
        <ele>181.8</ele>
        <time>2017-10-08T07:54:31Z</time>
      </trkpt>
      <trkpt lat="43.15732" lon="6.34687">
        <ele>182.2</ele>
        <time>2017-10-08T07:54:38Z</time>
      </trkpt>
      <trkpt lat="43.15723" lon="6.34691">
        <ele>182.5</ele>
        <time>2017-10-08T07:54:45Z</time>
      </trkpt>
      <trkpt lat="43.15716" lon="6.34702">
        <ele>182.5</ele>
        <time>2017-10-08T07:54:53Z</time>
      </trkpt>
      <trkpt lat="43.15709" lon="6.34711">
        <ele>182.7</ele>
        <time>2017-10-08T07:55:00Z</time>
      </trkpt>
      <trkpt lat="43.15702" lon="6.3472">
        <ele>182.5</ele>
        <time>2017-10-08T07:55:07Z</time>
      </trkpt>
      <trkpt lat="43.15697" lon="6.34731">
        <ele>182.3</ele>
        <time>2017-10-08T07:55:14Z</time>
      </trkpt>
      <trkpt lat="43.15697" lon="6.34745">
        <ele>182.4</ele>
        <time>2017-10-08T07:55:21Z</time>
      </trkpt>
      <trkpt lat="43.15699" lon="6.34757">
        <ele>182.2</ele>
        <time>2017-10-08T07:55:28Z</time>
      </trkpt>
      <trkpt lat="43.15703" lon="6.3477">
        <ele>182.1</ele>
        <time>2017-10-08T07:55:36Z</time>
      </trkpt>
      <trkpt lat="43.15708" lon="6.34782">
        <ele>181.9</ele>
        <time>2017-10-08T07:55:44Z</time>
      </trkpt>
      <trkpt lat="43.15712" lon="6.34795">
        <ele>181.9</ele>
        <time>2017-10-08T07:55:52Z</time>
      </trkpt>
      <trkpt lat="43.15719" lon="6.34804">
        <ele>182.5</ele>
        <time>2017-10-08T07:56:01Z</time>
      </trkpt>
      <trkpt lat="43.15723" lon="6.34815">
        <ele>183</ele>
        <time>2017-10-08T07:56:09Z</time>
      </trkpt>
      <trkpt lat="43.1573" lon="6.34826">
        <ele>183.1</ele>
        <time>2017-10-08T07:56:17Z</time>
      </trkpt>
      <trkpt lat="43.15735" lon="6.34837">
        <ele>183</ele>
        <time>2017-10-08T07:56:23Z</time>
      </trkpt>
      <trkpt lat="43.15741" lon="6.34849">
        <ele>182.7</ele>
        <time>2017-10-08T07:56:31Z</time>
      </trkpt>
      <trkpt lat="43.15746" lon="6.3486">
        <ele>182.4</ele>
        <time>2017-10-08T07:56:39Z</time>
      </trkpt>
      <trkpt lat="43.15747" lon="6.34873">
        <ele>182.2</ele>
        <time>2017-10-08T07:56:48Z</time>
      </trkpt>
      <trkpt lat="43.15745" lon="6.34887">
        <ele>181.7</ele>
        <time>2017-10-08T07:56:59Z</time>
      </trkpt>
      <trkpt lat="43.15741" lon="6.34898">
        <ele>181.7</ele>
        <time>2017-10-08T07:57:08Z</time>
      </trkpt>
      <trkpt lat="43.15734" lon="6.34907">
        <ele>181.7</ele>
        <time>2017-10-08T07:57:16Z</time>
      </trkpt>
      <trkpt lat="43.15727" lon="6.34916">
        <ele>181.7</ele>
        <time>2017-10-08T07:57:24Z</time>
      </trkpt>
      <trkpt lat="43.15726" lon="6.3493">
        <ele>181.5</ele>
        <time>2017-10-08T07:57:30Z</time>
      </trkpt>
      <trkpt lat="43.15725" lon="6.34943">
        <ele>181.6</ele>
        <time>2017-10-08T07:57:36Z</time>
      </trkpt>
      <trkpt lat="43.15726" lon="6.34957">
        <ele>181.5</ele>
        <time>2017-10-08T07:57:43Z</time>
      </trkpt>
      <trkpt lat="43.15726" lon="6.34971">
        <ele>181.3</ele>
        <time>2017-10-08T07:57:51Z</time>
      </trkpt>
      <trkpt lat="43.15725" lon="6.34984">
        <ele>181.2</ele>
        <time>2017-10-08T07:57:59Z</time>
      </trkpt>
      <trkpt lat="43.15724" lon="6.34997">
        <ele>181.3</ele>
        <time>2017-10-08T07:58:08Z</time>
      </trkpt>
      <trkpt lat="43.15726" lon="6.3501">
        <ele>181.2</ele>
        <time>2017-10-08T07:58:15Z</time>
      </trkpt>
      <trkpt lat="43.15729" lon="6.35023">
        <ele>181.5</ele>
        <time>2017-10-08T07:58:22Z</time>
      </trkpt>
      <trkpt lat="43.15731" lon="6.35035">
        <ele>181.7</ele>
        <time>2017-10-08T07:58:30Z</time>
      </trkpt>
      <trkpt lat="43.15735" lon="6.35047">
        <ele>182.2</ele>
        <time>2017-10-08T07:58:37Z</time>
      </trkpt>
      <trkpt lat="43.15738" lon="6.3506">
        <ele>182.4</ele>
        <time>2017-10-08T07:58:44Z</time>
      </trkpt>
      <trkpt lat="43.15744" lon="6.35071">
        <ele>182.8</ele>
        <time>2017-10-08T07:58:52Z</time>
      </trkpt>
      <trkpt lat="43.15749" lon="6.35082">
        <ele>183</ele>
        <time>2017-10-08T07:59:00Z</time>
      </trkpt>
      <trkpt lat="43.15754" lon="6.35094">
        <ele>182.7</ele>
        <time>2017-10-08T07:59:08Z</time>
      </trkpt>
      <trkpt lat="43.15758" lon="6.35107">
        <ele>182.9</ele>
        <time>2017-10-08T07:59:16Z</time>
      </trkpt>
      <trkpt lat="43.15762" lon="6.35119">
        <ele>183.2</ele>
        <time>2017-10-08T07:59:23Z</time>
      </trkpt>
      <trkpt lat="43.15767" lon="6.35132">
        <ele>183.5</ele>
        <time>2017-10-08T07:59:30Z</time>
      </trkpt>
      <trkpt lat="43.15773" lon="6.35142">
        <ele>183.9</ele>
        <time>2017-10-08T07:59:39Z</time>
      </trkpt>
      <trkpt lat="43.15778" lon="6.35152">
        <ele>184</ele>
        <time>2017-10-08T07:59:47Z</time>
      </trkpt>
      <trkpt lat="43.15785" lon="6.35161">
        <ele>184.5</ele>
        <time>2017-10-08T07:59:55Z</time>
      </trkpt>
      <trkpt lat="43.15789" lon="6.35172">
        <ele>185</ele>
        <time>2017-10-08T08:00:04Z</time>
      </trkpt>
      <trkpt lat="43.15792" lon="6.35185">
        <ele>185.2</ele>
        <time>2017-10-08T08:00:13Z</time>
      </trkpt>
      <trkpt lat="43.15791" lon="6.35199">
        <ele>185.5</ele>
        <time>2017-10-08T08:00:22Z</time>
      </trkpt>
      <trkpt lat="43.15791" lon="6.35211">
        <ele>185.7</ele>
        <time>2017-10-08T08:00:30Z</time>
      </trkpt>
      <trkpt lat="43.15791" lon="6.35224">
        <ele>185.8</ele>
        <time>2017-10-08T08:00:35Z</time>
      </trkpt>
      <trkpt lat="43.15793" lon="6.35237">
        <ele>186</ele>
        <time>2017-10-08T08:00:43Z</time>
      </trkpt>
      <trkpt lat="43.15799" lon="6.35248">
        <ele>186.5</ele>
        <time>2017-10-08T08:00:51Z</time>
      </trkpt>
      <trkpt lat="43.15803" lon="6.35261">
        <ele>186.6</ele>
        <time>2017-10-08T08:01:00Z</time>
      </trkpt>
      <trkpt lat="43.15809" lon="6.35273">
        <ele>186.6</ele>
        <time>2017-10-08T08:01:06Z</time>
      </trkpt>
      <trkpt lat="43.15816" lon="6.35282">
        <ele>186.8</ele>
        <time>2017-10-08T08:01:14Z</time>
      </trkpt>
      <trkpt lat="43.15821" lon="6.35294">
        <ele>187</ele>
        <time>2017-10-08T08:01:21Z</time>
      </trkpt>
      <trkpt lat="43.15827" lon="6.35303">
        <ele>187.2</ele>
        <time>2017-10-08T08:01:28Z</time>
      </trkpt>
      <trkpt lat="43.15834" lon="6.35313">
        <ele>187.4</ele>
        <time>2017-10-08T08:01:36Z</time>
      </trkpt>
      <trkpt lat="43.15841" lon="6.35321">
        <ele>187.2</ele>
        <time>2017-10-08T08:01:44Z</time>
      </trkpt>
      <trkpt lat="43.15847" lon="6.35331">
        <ele>187.2</ele>
        <time>2017-10-08T08:01:51Z</time>
      </trkpt>
      <trkpt lat="43.15854" lon="6.35341">
        <ele>187.4</ele>
        <time>2017-10-08T08:01:58Z</time>
      </trkpt>
      <trkpt lat="43.15861" lon="6.35349">
        <ele>188</ele>
        <time>2017-10-08T08:02:05Z</time>
      </trkpt>
      <trkpt lat="43.1587" lon="6.35354">
        <ele>188.3</ele>
        <time>2017-10-08T08:02:12Z</time>
      </trkpt>
      <trkpt lat="43.15878" lon="6.35362">
        <ele>188.6</ele>
        <time>2017-10-08T08:02:20Z</time>
      </trkpt>
      <trkpt lat="43.15887" lon="6.35366">
        <ele>188.9</ele>
        <time>2017-10-08T08:02:27Z</time>
      </trkpt>
      <trkpt lat="43.15895" lon="6.35374">
        <ele>189.1</ele>
        <time>2017-10-08T08:02:35Z</time>
      </trkpt>
      <trkpt lat="43.15903" lon="6.35378">
        <ele>189.2</ele>
        <time>2017-10-08T08:02:42Z</time>
      </trkpt>
      <trkpt lat="43.15911" lon="6.35385">
        <ele>189.3</ele>
        <time>2017-10-08T08:02:50Z</time>
      </trkpt>
      <trkpt lat="43.1591" lon="6.35398">
        <ele>189</ele>
        <time>2017-10-08T08:03:04Z</time>
      </trkpt>
      <trkpt lat="43.15915" lon="6.35408">
        <ele>188.2</ele>
        <time>2017-10-08T08:03:36Z</time>
      </trkpt>
      <trkpt lat="43.15909" lon="6.35419">
        <ele>187.2</ele>
        <time>2017-10-08T08:05:02Z</time>
      </trkpt>
      <trkpt lat="43.15905" lon="6.35431">
        <ele>187.5</ele>
        <time>2017-10-08T08:05:12Z</time>
      </trkpt>
      <trkpt lat="43.15902" lon="6.35444">
        <ele>188</ele>
        <time>2017-10-08T08:05:21Z</time>
      </trkpt>
      <trkpt lat="43.15903" lon="6.35458">
        <ele>188.5</ele>
        <time>2017-10-08T08:05:35Z</time>
      </trkpt>
      <trkpt lat="43.15906" lon="6.3547">
        <ele>188.7</ele>
        <time>2017-10-08T08:05:42Z</time>
      </trkpt>
      <trkpt lat="43.15907" lon="6.35483">
        <ele>188.9</ele>
        <time>2017-10-08T08:05:49Z</time>
      </trkpt>
      <trkpt lat="43.15909" lon="6.35496">
        <ele>189.3</ele>
        <time>2017-10-08T08:05:58Z</time>
      </trkpt>
      <trkpt lat="43.1591" lon="6.35509">
        <ele>189</ele>
        <time>2017-10-08T08:06:06Z</time>
      </trkpt>
      <trkpt lat="43.1591" lon="6.35522">
        <ele>188.9</ele>
        <time>2017-10-08T08:06:13Z</time>
      </trkpt>
      <trkpt lat="43.1591" lon="6.35536">
        <ele>189.6</ele>
        <time>2017-10-08T08:06:24Z</time>
      </trkpt>
      <trkpt lat="43.15912" lon="6.3555">
        <ele>189.6</ele>
        <time>2017-10-08T08:06:33Z</time>
      </trkpt>
      <trkpt lat="43.15914" lon="6.35563">
        <ele>189.6</ele>
        <time>2017-10-08T08:06:40Z</time>
      </trkpt>
      <trkpt lat="43.15919" lon="6.35574">
        <ele>190.2</ele>
        <time>2017-10-08T08:06:47Z</time>
      </trkpt>
      <trkpt lat="43.15922" lon="6.35587">
        <ele>190.9</ele>
        <time>2017-10-08T08:06:55Z</time>
      </trkpt>
      <trkpt lat="43.15928" lon="6.35599">
        <ele>191.4</ele>
        <time>2017-10-08T08:07:04Z</time>
      </trkpt>
      <trkpt lat="43.15933" lon="6.3561">
        <ele>192.1</ele>
        <time>2017-10-08T08:07:13Z</time>
      </trkpt>
      <trkpt lat="43.15938" lon="6.35622">
        <ele>193.1</ele>
        <time>2017-10-08T08:07:21Z</time>
      </trkpt>
      <trkpt lat="43.15943" lon="6.35633">
        <ele>193.5</ele>
        <time>2017-10-08T08:07:28Z</time>
      </trkpt>
      <trkpt lat="43.15949" lon="6.35643">
        <ele>194.6</ele>
        <time>2017-10-08T08:07:36Z</time>
      </trkpt>
      <trkpt lat="43.15955" lon="6.35653">
        <ele>195.5</ele>
        <time>2017-10-08T08:07:45Z</time>
      </trkpt>
      <trkpt lat="43.15962" lon="6.35663">
        <ele>196.9</ele>
        <time>2017-10-08T08:07:58Z</time>
      </trkpt>
      <trkpt lat="43.15971" lon="6.35671">
        <ele>197.4</ele>
        <time>2017-10-08T08:08:09Z</time>
      </trkpt>
      <trkpt lat="43.15979" lon="6.35679">
        <ele>197.6</ele>
        <time>2017-10-08T08:08:16Z</time>
      </trkpt>
      <trkpt lat="43.15987" lon="6.35686">
        <ele>198.6</ele>
        <time>2017-10-08T08:08:23Z</time>
      </trkpt>
      <trkpt lat="43.15995" lon="6.35691">
        <ele>199.3</ele>
        <time>2017-10-08T08:08:33Z</time>
      </trkpt>
      <trkpt lat="43.16005" lon="6.35691">
        <ele>199.6</ele>
        <time>2017-10-08T08:08:41Z</time>
      </trkpt>
      <trkpt lat="43.16014" lon="6.35692">
        <ele>199.8</ele>
        <time>2017-10-08T08:08:49Z</time>
      </trkpt>
      <trkpt lat="43.16024" lon="6.35694">
        <ele>200.2</ele>
        <time>2017-10-08T08:08:58Z</time>
      </trkpt>
      <trkpt lat="43.16031" lon="6.35703">
        <ele>200.4</ele>
        <time>2017-10-08T08:09:07Z</time>
      </trkpt>
      <trkpt lat="43.16034" lon="6.35715">
        <ele>200.2</ele>
        <time>2017-10-08T08:09:15Z</time>
      </trkpt>
      <trkpt lat="43.16038" lon="6.35726">
        <ele>200</ele>
        <time>2017-10-08T08:09:26Z</time>
      </trkpt>
      <trkpt lat="43.16042" lon="6.35738">
        <ele>200</ele>
        <time>2017-10-08T08:09:35Z</time>
      </trkpt>
      <trkpt lat="43.16048" lon="6.35748">
        <ele>199.4</ele>
        <time>2017-10-08T08:09:43Z</time>
      </trkpt>
      <trkpt lat="43.16053" lon="6.3576">
        <ele>199.7</ele>
        <time>2017-10-08T08:09:51Z</time>
      </trkpt>
      <trkpt lat="43.16059" lon="6.35771">
        <ele>200.1</ele>
        <time>2017-10-08T08:09:59Z</time>
      </trkpt>
      <trkpt lat="43.16064" lon="6.35782">
        <ele>201</ele>
        <time>2017-10-08T08:10:08Z</time>
      </trkpt>
      <trkpt lat="43.16069" lon="6.35793">
        <ele>201.2</ele>
        <time>2017-10-08T08:10:16Z</time>
      </trkpt>
      <trkpt lat="43.16074" lon="6.35803">
        <ele>201.6</ele>
        <time>2017-10-08T08:10:24Z</time>
      </trkpt>
      <trkpt lat="43.16079" lon="6.35814">
        <ele>201.4</ele>
        <time>2017-10-08T08:10:32Z</time>
      </trkpt>
      <trkpt lat="43.16084" lon="6.35825">
        <ele>201.3</ele>
        <time>2017-10-08T08:10:40Z</time>
      </trkpt>
      <trkpt lat="43.16091" lon="6.35835">
        <ele>201.8</ele>
        <time>2017-10-08T08:10:48Z</time>
      </trkpt>
      <trkpt lat="43.16098" lon="6.35845">
        <ele>202.3</ele>
        <time>2017-10-08T08:10:58Z</time>
      </trkpt>
      <trkpt lat="43.16102" lon="6.35857">
        <ele>202.9</ele>
        <time>2017-10-08T08:11:07Z</time>
      </trkpt>
      <trkpt lat="43.16107" lon="6.35867">
        <ele>203.1</ele>
        <time>2017-10-08T08:11:16Z</time>
      </trkpt>
      <trkpt lat="43.16111" lon="6.35879">
        <ele>203.2</ele>
        <time>2017-10-08T08:11:23Z</time>
      </trkpt>
      <trkpt lat="43.16115" lon="6.35893">
        <ele>203.5</ele>
        <time>2017-10-08T08:11:32Z</time>
      </trkpt>
      <trkpt lat="43.16115" lon="6.35905">
        <ele>204.2</ele>
        <time>2017-10-08T08:11:42Z</time>
      </trkpt>
      <trkpt lat="43.16117" lon="6.35919">
        <ele>205.3</ele>
        <time>2017-10-08T08:11:52Z</time>
      </trkpt>
      <trkpt lat="43.1612" lon="6.35932">
        <ele>206.1</ele>
        <time>2017-10-08T08:12:01Z</time>
      </trkpt>
      <trkpt lat="43.16128" lon="6.35937">
        <ele>208.8</ele>
        <time>2017-10-08T08:13:25Z</time>
      </trkpt>
      <trkpt lat="43.1613" lon="6.3595">
        <ele>205.7</ele>
        <time>2017-10-08T08:17:41Z</time>
      </trkpt>
      <trkpt lat="43.16134" lon="6.35962">
        <ele>205.3</ele>
        <time>2017-10-08T08:17:50Z</time>
      </trkpt>
      <trkpt lat="43.16142" lon="6.35969">
        <ele>204.5</ele>
        <time>2017-10-08T08:18:04Z</time>
      </trkpt>
      <trkpt lat="43.16151" lon="6.35972">
        <ele>203.8</ele>
        <time>2017-10-08T08:18:14Z</time>
      </trkpt>
      <trkpt lat="43.1616" lon="6.35973">
        <ele>202.9</ele>
        <time>2017-10-08T08:18:23Z</time>
      </trkpt>
      <trkpt lat="43.16169" lon="6.35979">
        <ele>201.5</ele>
        <time>2017-10-08T08:18:33Z</time>
      </trkpt>
      <trkpt lat="43.16175" lon="6.35988">
        <ele>201.1</ele>
        <time>2017-10-08T08:18:50Z</time>
      </trkpt>
      <trkpt lat="43.16183" lon="6.35995">
        <ele>201.6</ele>
        <time>2017-10-08T08:19:00Z</time>
      </trkpt>
      <trkpt lat="43.16192" lon="6.35998">
        <ele>202.1</ele>
        <time>2017-10-08T08:19:11Z</time>
      </trkpt>
      <trkpt lat="43.16202" lon="6.35999">
        <ele>202.6</ele>
        <time>2017-10-08T08:19:20Z</time>
      </trkpt>
      <trkpt lat="43.16211" lon="6.36001">
        <ele>203.4</ele>
        <time>2017-10-08T08:19:29Z</time>
      </trkpt>
      <trkpt lat="43.16221" lon="6.36003">
        <ele>204.4</ele>
        <time>2017-10-08T08:19:41Z</time>
      </trkpt>
      <trkpt lat="43.16229" lon="6.36012">
        <ele>205.8</ele>
        <time>2017-10-08T08:19:56Z</time>
      </trkpt>
      <trkpt lat="43.16238" lon="6.36019">
        <ele>206.5</ele>
        <time>2017-10-08T08:20:05Z</time>
      </trkpt>
      <trkpt lat="43.16245" lon="6.36026">
        <ele>207.5</ele>
        <time>2017-10-08T08:20:15Z</time>
      </trkpt>
      <trkpt lat="43.16251" lon="6.36038">
        <ele>208.7</ele>
        <time>2017-10-08T08:20:23Z</time>
      </trkpt>
      <trkpt lat="43.16259" lon="6.36044">
        <ele>209.8</ele>
        <time>2017-10-08T08:20:34Z</time>
      </trkpt>
      <trkpt lat="43.16267" lon="6.36051">
        <ele>210.8</ele>
        <time>2017-10-08T08:20:44Z</time>
      </trkpt>
      <trkpt lat="43.16274" lon="6.3606">
        <ele>211.7</ele>
        <time>2017-10-08T08:20:54Z</time>
      </trkpt>
      <trkpt lat="43.16281" lon="6.36069">
        <ele>212.7</ele>
        <time>2017-10-08T08:21:04Z</time>
      </trkpt>
      <trkpt lat="43.16287" lon="6.3608">
        <ele>213.4</ele>
        <time>2017-10-08T08:21:12Z</time>
      </trkpt>
      <trkpt lat="43.16292" lon="6.36091">
        <ele>214.9</ele>
        <time>2017-10-08T08:21:23Z</time>
      </trkpt>
      <trkpt lat="43.16297" lon="6.36102">
        <ele>216.1</ele>
        <time>2017-10-08T08:21:31Z</time>
      </trkpt>
      <trkpt lat="43.163" lon="6.36114">
        <ele>217.5</ele>
        <time>2017-10-08T08:21:42Z</time>
      </trkpt>
      <trkpt lat="43.16304" lon="6.36127">
        <ele>219.2</ele>
        <time>2017-10-08T08:21:55Z</time>
      </trkpt>
      <trkpt lat="43.16308" lon="6.36138">
        <ele>220</ele>
        <time>2017-10-08T08:22:03Z</time>
      </trkpt>
      <trkpt lat="43.16315" lon="6.36146">
        <ele>221.4</ele>
        <time>2017-10-08T08:22:15Z</time>
      </trkpt>
      <trkpt lat="43.16321" lon="6.36156">
        <ele>222.6</ele>
        <time>2017-10-08T08:22:25Z</time>
      </trkpt>
      <trkpt lat="43.16328" lon="6.36166">
        <ele>223.8</ele>
        <time>2017-10-08T08:22:34Z</time>
      </trkpt>
      <trkpt lat="43.16336" lon="6.36172">
        <ele>224.6</ele>
        <time>2017-10-08T08:22:43Z</time>
      </trkpt>
      <trkpt lat="43.16344" lon="6.3618">
        <ele>226.1</ele>
        <time>2017-10-08T08:22:54Z</time>
      </trkpt>
      <trkpt lat="43.16348" lon="6.36191">
        <ele>228</ele>
        <time>2017-10-08T08:23:09Z</time>
      </trkpt>
      <trkpt lat="43.16353" lon="6.36202">
        <ele>230.5</ele>
        <time>2017-10-08T08:23:27Z</time>
      </trkpt>
      <trkpt lat="43.16357" lon="6.36213">
        <ele>232.8</ele>
        <time>2017-10-08T08:23:43Z</time>
      </trkpt>
      <trkpt lat="43.16362" lon="6.36225">
        <ele>234.5</ele>
        <time>2017-10-08T08:23:53Z</time>
      </trkpt>
      <trkpt lat="43.16364" lon="6.36237">
        <ele>236.1</ele>
        <time>2017-10-08T08:24:07Z</time>
      </trkpt>
      <trkpt lat="43.16367" lon="6.36249">
        <ele>237.3</ele>
        <time>2017-10-08T08:24:19Z</time>
      </trkpt>
      <trkpt lat="43.1637" lon="6.36261">
        <ele>239.4</ele>
        <time>2017-10-08T08:24:30Z</time>
      </trkpt>
      <trkpt lat="43.16372" lon="6.36274">
        <ele>240.8</ele>
        <time>2017-10-08T08:24:42Z</time>
      </trkpt>
      <trkpt lat="43.1637" lon="6.36287">
        <ele>242.1</ele>
        <time>2017-10-08T08:24:53Z</time>
      </trkpt>
      <trkpt lat="43.16373" lon="6.363">
        <ele>243</ele>
        <time>2017-10-08T08:25:01Z</time>
      </trkpt>
      <trkpt lat="43.16377" lon="6.36312">
        <ele>243.8</ele>
        <time>2017-10-08T08:25:10Z</time>
      </trkpt>
      <trkpt lat="43.16383" lon="6.36323">
        <ele>244.5</ele>
        <time>2017-10-08T08:25:19Z</time>
      </trkpt>
      <trkpt lat="43.16389" lon="6.36334">
        <ele>245.7</ele>
        <time>2017-10-08T08:25:27Z</time>
      </trkpt>
      <trkpt lat="43.16395" lon="6.36344">
        <ele>246</ele>
        <time>2017-10-08T08:25:36Z</time>
      </trkpt>
      <trkpt lat="43.16399" lon="6.36357">
        <ele>246.6</ele>
        <time>2017-10-08T08:25:46Z</time>
      </trkpt>
      <trkpt lat="43.16404" lon="6.36368">
        <ele>247.4</ele>
        <time>2017-10-08T08:25:53Z</time>
      </trkpt>
      <trkpt lat="43.16411" lon="6.36377">
        <ele>248.3</ele>
        <time>2017-10-08T08:26:03Z</time>
      </trkpt>
      <trkpt lat="43.16415" lon="6.36389">
        <ele>249</ele>
        <time>2017-10-08T08:26:13Z</time>
      </trkpt>
      <trkpt lat="43.16419" lon="6.364">
        <ele>250.2</ele>
        <time>2017-10-08T08:26:23Z</time>
      </trkpt>
      <trkpt lat="43.16422" lon="6.36412">
        <ele>251.7</ele>
        <time>2017-10-08T08:26:35Z</time>
      </trkpt>
      <trkpt lat="43.16424" lon="6.36425">
        <ele>253.4</ele>
        <time>2017-10-08T08:27:05Z</time>
      </trkpt>
      <trkpt lat="43.16426" lon="6.36438">
        <ele>254</ele>
        <time>2017-10-08T08:27:14Z</time>
      </trkpt>
      <trkpt lat="43.16429" lon="6.36451">
        <ele>255.4</ele>
        <time>2017-10-08T08:27:26Z</time>
      </trkpt>
      <trkpt lat="43.16431" lon="6.36464">
        <ele>256.1</ele>
        <time>2017-10-08T08:27:36Z</time>
      </trkpt>
      <trkpt lat="43.16434" lon="6.36476">
        <ele>256.5</ele>
        <time>2017-10-08T08:27:44Z</time>
      </trkpt>
      <trkpt lat="43.16436" lon="6.36489">
        <ele>257</ele>
        <time>2017-10-08T08:27:54Z</time>
      </trkpt>
      <trkpt lat="43.16443" lon="6.36498">
        <ele>257.5</ele>
        <time>2017-10-08T08:28:13Z</time>
      </trkpt>
      <trkpt lat="43.1645" lon="6.36506">
        <ele>258.2</ele>
        <time>2017-10-08T08:28:21Z</time>
      </trkpt>
      <trkpt lat="43.16455" lon="6.36518">
        <ele>260.2</ele>
        <time>2017-10-08T08:28:31Z</time>
      </trkpt>
      <trkpt lat="43.16462" lon="6.36527">
        <ele>261.8</ele>
        <time>2017-10-08T08:28:40Z</time>
      </trkpt>
      <trkpt lat="43.16469" lon="6.36536">
        <ele>263.1</ele>
        <time>2017-10-08T08:28:50Z</time>
      </trkpt>
      <trkpt lat="43.16475" lon="6.36545">
        <ele>263.8</ele>
        <time>2017-10-08T08:29:01Z</time>
      </trkpt>
      <trkpt lat="43.1648" lon="6.36556">
        <ele>264.8</ele>
        <time>2017-10-08T08:29:12Z</time>
      </trkpt>
      <trkpt lat="43.16487" lon="6.36565">
        <ele>265.5</ele>
        <time>2017-10-08T08:29:21Z</time>
      </trkpt>
      <trkpt lat="43.16494" lon="6.36572">
        <ele>265.1</ele>
        <time>2017-10-08T08:31:35Z</time>
      </trkpt>
      <trkpt lat="43.165" lon="6.36582">
        <ele>265.2</ele>
        <time>2017-10-08T08:31:57Z</time>
      </trkpt>
      <trkpt lat="43.16503" lon="6.36594">
        <ele>267.1</ele>
        <time>2017-10-08T08:32:21Z</time>
      </trkpt>
      <trkpt lat="43.165" lon="6.36606">
        <ele>270.8</ele>
        <time>2017-10-08T08:32:45Z</time>
      </trkpt>
      <trkpt lat="43.16499" lon="6.36619">
        <ele>274</ele>
        <time>2017-10-08T08:33:07Z</time>
      </trkpt>
      <trkpt lat="43.16496" lon="6.36631">
        <ele>276.9</ele>
        <time>2017-10-08T08:33:30Z</time>
      </trkpt>
      <trkpt lat="43.16495" lon="6.36643">
        <ele>279.2</ele>
        <time>2017-10-08T08:33:47Z</time>
      </trkpt>
      <trkpt lat="43.16497" lon="6.36656">
        <ele>280.6</ele>
        <time>2017-10-08T08:33:59Z</time>
      </trkpt>
      <trkpt lat="43.165" lon="6.36668">
        <ele>281.3</ele>
        <time>2017-10-08T08:34:09Z</time>
      </trkpt>
      <trkpt lat="43.16504" lon="6.3668">
        <ele>281.7</ele>
        <time>2017-10-08T08:34:18Z</time>
      </trkpt>
      <trkpt lat="43.16504" lon="6.36693">
        <ele>282.4</ele>
        <time>2017-10-08T08:34:30Z</time>
      </trkpt>
      <trkpt lat="43.16501" lon="6.36705">
        <ele>283.3</ele>
        <time>2017-10-08T08:34:43Z</time>
      </trkpt>
      <trkpt lat="43.16497" lon="6.36717">
        <ele>285</ele>
        <time>2017-10-08T08:34:55Z</time>
      </trkpt>
      <trkpt lat="43.16502" lon="6.36728">
        <ele>284.6</ele>
        <time>2017-10-08T08:35:08Z</time>
      </trkpt>
      <trkpt lat="43.1651" lon="6.36735">
        <ele>285.2</ele>
        <time>2017-10-08T08:35:24Z</time>
      </trkpt>
      <trkpt lat="43.16514" lon="6.36746">
        <ele>287</ele>
        <time>2017-10-08T08:35:45Z</time>
      </trkpt>
      <trkpt lat="43.1652" lon="6.36757">
        <ele>288.2</ele>
        <time>2017-10-08T08:35:56Z</time>
      </trkpt>
      <trkpt lat="43.16526" lon="6.36767">
        <ele>289.4</ele>
        <time>2017-10-08T08:36:04Z</time>
      </trkpt>
      <trkpt lat="43.16532" lon="6.36777">
        <ele>290.7</ele>
        <time>2017-10-08T08:36:16Z</time>
      </trkpt>
      <trkpt lat="43.16536" lon="6.36788">
        <ele>292.6</ele>
        <time>2017-10-08T08:36:29Z</time>
      </trkpt>
      <trkpt lat="43.1654" lon="6.368">
        <ele>294.8</ele>
        <time>2017-10-08T08:36:42Z</time>
      </trkpt>
      <trkpt lat="43.16545" lon="6.36811">
        <ele>297.1</ele>
        <time>2017-10-08T08:36:57Z</time>
      </trkpt>
      <trkpt lat="43.16552" lon="6.3682">
        <ele>297.8</ele>
        <time>2017-10-08T08:37:04Z</time>
      </trkpt>
      <trkpt lat="43.16557" lon="6.3683">
        <ele>299.2</ele>
        <time>2017-10-08T08:37:15Z</time>
      </trkpt>
      <trkpt lat="43.16564" lon="6.36841">
        <ele>301.2</ele>
        <time>2017-10-08T08:37:29Z</time>
      </trkpt>
      <trkpt lat="43.16569" lon="6.36851">
        <ele>302.8</ele>
        <time>2017-10-08T08:37:39Z</time>
      </trkpt>
      <trkpt lat="43.16574" lon="6.36862">
        <ele>304</ele>
        <time>2017-10-08T08:37:49Z</time>
      </trkpt>
      <trkpt lat="43.1658" lon="6.36874">
        <ele>305.5</ele>
        <time>2017-10-08T08:38:07Z</time>
      </trkpt>
      <trkpt lat="43.16587" lon="6.36883">
        <ele>305.9</ele>
        <time>2017-10-08T08:38:14Z</time>
      </trkpt>
      <trkpt lat="43.16593" lon="6.36892">
        <ele>306.2</ele>
        <time>2017-10-08T08:38:20Z</time>
      </trkpt>
      <trkpt lat="43.166" lon="6.369">
        <ele>307.1</ele>
        <time>2017-10-08T08:38:29Z</time>
      </trkpt>
      <trkpt lat="43.16605" lon="6.36911">
        <ele>307.3</ele>
        <time>2017-10-08T08:38:38Z</time>
      </trkpt>
      <trkpt lat="43.16612" lon="6.3692">
        <ele>307.9</ele>
        <time>2017-10-08T08:38:47Z</time>
      </trkpt>
      <trkpt lat="43.16621" lon="6.36925">
        <ele>308.5</ele>
        <time>2017-10-08T08:39:04Z</time>
      </trkpt>
      <trkpt lat="43.16628" lon="6.36935">
        <ele>309.7</ele>
        <time>2017-10-08T08:39:21Z</time>
      </trkpt>
      <trkpt lat="43.16635" lon="6.36942">
        <ele>310.8</ele>
        <time>2017-10-08T08:39:31Z</time>
      </trkpt>
      <trkpt lat="43.16643" lon="6.36949">
        <ele>312.3</ele>
        <time>2017-10-08T08:39:43Z</time>
      </trkpt>
      <trkpt lat="43.16649" lon="6.3696">
        <ele>313.9</ele>
        <time>2017-10-08T08:39:53Z</time>
      </trkpt>
      <trkpt lat="43.16657" lon="6.36969">
        <ele>316.1</ele>
        <time>2017-10-08T08:40:09Z</time>
      </trkpt>
      <trkpt lat="43.16666" lon="6.36972">
        <ele>316.3</ele>
        <time>2017-10-08T08:40:19Z</time>
      </trkpt>
      <trkpt lat="43.16673" lon="6.3698">
        <ele>317.6</ele>
        <time>2017-10-08T08:40:40Z</time>
      </trkpt>
      <trkpt lat="43.1668" lon="6.36988">
        <ele>318.4</ele>
        <time>2017-10-08T08:40:50Z</time>
      </trkpt>
      <trkpt lat="43.16689" lon="6.36994">
        <ele>319</ele>
        <time>2017-10-08T08:40:58Z</time>
      </trkpt>
      <trkpt lat="43.16698" lon="6.36993">
        <ele>319.9</ele>
        <time>2017-10-08T08:41:10Z</time>
      </trkpt>
      <trkpt lat="43.16707" lon="6.36997">
        <ele>320.7</ele>
        <time>2017-10-08T08:41:27Z</time>
      </trkpt>
      <trkpt lat="43.16716" lon="6.36996">
        <ele>321.5</ele>
        <time>2017-10-08T08:41:38Z</time>
      </trkpt>
      <trkpt lat="43.16726" lon="6.36996">
        <ele>323.1</ele>
        <time>2017-10-08T08:41:51Z</time>
      </trkpt>
      <trkpt lat="43.16735" lon="6.36995">
        <ele>324.4</ele>
        <time>2017-10-08T08:42:02Z</time>
      </trkpt>
      <trkpt lat="43.16743" lon="6.37001">
        <ele>328.2</ele>
        <time>2017-10-08T08:42:33Z</time>
      </trkpt>
      <trkpt lat="43.1675" lon="6.37009">
        <ele>330.5</ele>
        <time>2017-10-08T08:42:51Z</time>
      </trkpt>
      <trkpt lat="43.16759" lon="6.37011">
        <ele>334</ele>
        <time>2017-10-08T08:43:12Z</time>
      </trkpt>
      <trkpt lat="43.16768" lon="6.37012">
        <ele>335.4</ele>
        <time>2017-10-08T08:43:44Z</time>
      </trkpt>
      <trkpt lat="43.16777" lon="6.37009">
        <ele>337.9</ele>
        <time>2017-10-08T08:46:31Z</time>
      </trkpt>
      <trkpt lat="43.16784" lon="6.37016">
        <ele>338.6</ele>
        <time>2017-10-08T08:46:43Z</time>
      </trkpt>
      <trkpt lat="43.16792" lon="6.37023">
        <ele>340</ele>
        <time>2017-10-08T08:46:59Z</time>
      </trkpt>
      <trkpt lat="43.16801" lon="6.37029">
        <ele>341.8</ele>
        <time>2017-10-08T08:47:14Z</time>
      </trkpt>
      <trkpt lat="43.1681" lon="6.37033">
        <ele>343.8</ele>
        <time>2017-10-08T08:47:28Z</time>
      </trkpt>
      <trkpt lat="43.16819" lon="6.37037">
        <ele>347.7</ele>
        <time>2017-10-08T08:48:10Z</time>
      </trkpt>
      <trkpt lat="43.16826" lon="6.37046">
        <ele>351.1</ele>
        <time>2017-10-08T08:48:37Z</time>
      </trkpt>
      <trkpt lat="43.16835" lon="6.37047">
        <ele>353.5</ele>
        <time>2017-10-08T08:48:48Z</time>
      </trkpt>
      <trkpt lat="43.16845" lon="6.37048">
        <ele>354.4</ele>
        <time>2017-10-08T08:48:57Z</time>
      </trkpt>
      <trkpt lat="43.16854" lon="6.37046">
        <ele>355.7</ele>
        <time>2017-10-08T08:49:09Z</time>
      </trkpt>
      <trkpt lat="43.16863" lon="6.37047">
        <ele>357</ele>
        <time>2017-10-08T08:49:22Z</time>
      </trkpt>
      <trkpt lat="43.16871" lon="6.37052">
        <ele>358.8</ele>
        <time>2017-10-08T08:49:38Z</time>
      </trkpt>
      <trkpt lat="43.1688" lon="6.37049">
        <ele>361.5</ele>
        <time>2017-10-08T08:50:18Z</time>
      </trkpt>
      <trkpt lat="43.16886" lon="6.37059">
        <ele>368.5</ele>
        <time>2017-10-08T08:51:26Z</time>
      </trkpt>
      <trkpt lat="43.16887" lon="6.37071">
        <ele>374.9</ele>
        <time>2017-10-08T08:52:33Z</time>
      </trkpt>
      <trkpt lat="43.16881" lon="6.3708">
        <ele>379.5</ele>
        <time>2017-10-08T08:53:17Z</time>
      </trkpt>
      <trkpt lat="43.16885" lon="6.37092">
        <ele>381</ele>
        <time>2017-10-08T08:53:41Z</time>
      </trkpt>
      <trkpt lat="43.16893" lon="6.37095">
        <ele>384.3</ele>
        <time>2017-10-08T08:56:02Z</time>
      </trkpt>
      <trkpt lat="43.16899" lon="6.37086">
        <ele>382.8</ele>
        <time>2017-10-08T08:58:17Z</time>
      </trkpt>
      <trkpt lat="43.16908" lon="6.37086">
        <ele>382.6</ele>
        <time>2017-10-08T08:58:34Z</time>
      </trkpt>
      <trkpt lat="43.16915" lon="6.37093">
        <ele>383.7</ele>
        <time>2017-10-08T08:58:48Z</time>
      </trkpt>
      <trkpt lat="43.16919" lon="6.37105">
        <ele>386.7</ele>
        <time>2017-10-08T08:59:03Z</time>
      </trkpt>
      <trkpt lat="43.16923" lon="6.37116">
        <ele>389.1</ele>
        <time>2017-10-08T08:59:20Z</time>
      </trkpt>
      <trkpt lat="43.1693" lon="6.37125">
        <ele>391</ele>
        <time>2017-10-08T08:59:34Z</time>
      </trkpt>
      <trkpt lat="43.16936" lon="6.37116">
        <ele>392.8</ele>
        <time>2017-10-08T08:59:51Z</time>
      </trkpt>
      <trkpt lat="43.16943" lon="6.37107">
        <ele>394.4</ele>
        <time>2017-10-08T09:00:25Z</time>
      </trkpt>
      <trkpt lat="43.1695" lon="6.37099">
        <ele>397</ele>
        <time>2017-10-08T09:01:06Z</time>
      </trkpt>
      <trkpt lat="43.16956" lon="6.37089">
        <ele>398.5</ele>
        <time>2017-10-08T09:01:22Z</time>
      </trkpt>
      <trkpt lat="43.16958" lon="6.37077">
        <ele>401.4</ele>
        <time>2017-10-08T09:01:48Z</time>
      </trkpt>
      <trkpt lat="43.16967" lon="6.3707">
        <ele>402.8</ele>
        <time>2017-10-08T09:02:11Z</time>
      </trkpt>
      <trkpt lat="43.16972" lon="6.3706">
        <ele>402.7</ele>
        <time>2017-10-08T09:02:25Z</time>
      </trkpt>
      <trkpt lat="43.1698" lon="6.37054">
        <ele>403.2</ele>
        <time>2017-10-08T09:02:35Z</time>
      </trkpt>
      <trkpt lat="43.16988" lon="6.37047">
        <ele>402.5</ele>
        <time>2017-10-08T09:02:50Z</time>
      </trkpt>
      <trkpt lat="43.16997" lon="6.37044">
        <ele>401.6</ele>
        <time>2017-10-08T09:03:03Z</time>
      </trkpt>
      <trkpt lat="43.17006" lon="6.37039">
        <ele>401</ele>
        <time>2017-10-08T09:03:15Z</time>
      </trkpt>
      <trkpt lat="43.17014" lon="6.37034">
        <ele>400.3</ele>
        <time>2017-10-08T09:03:24Z</time>
      </trkpt>
      <trkpt lat="43.17023" lon="6.37027">
        <ele>399.6</ele>
        <time>2017-10-08T09:03:36Z</time>
      </trkpt>
      <trkpt lat="43.17028" lon="6.37017">
        <ele>398.7</ele>
        <time>2017-10-08T09:03:48Z</time>
      </trkpt>
      <trkpt lat="43.17038" lon="6.37016">
        <ele>398.3</ele>
        <time>2017-10-08T09:03:57Z</time>
      </trkpt>
      <trkpt lat="43.17046" lon="6.3701">
        <ele>398</ele>
        <time>2017-10-08T09:04:09Z</time>
      </trkpt>
      <trkpt lat="43.17055" lon="6.37004">
        <ele>398.5</ele>
        <time>2017-10-08T09:04:26Z</time>
      </trkpt>
      <trkpt lat="43.17062" lon="6.36996">
        <ele>399.1</ele>
        <time>2017-10-08T09:04:39Z</time>
      </trkpt>
      <trkpt lat="43.1707" lon="6.36993">
        <ele>400.6</ele>
        <time>2017-10-08T09:04:54Z</time>
      </trkpt>
      <trkpt lat="43.1708" lon="6.36995">
        <ele>403.3</ele>
        <time>2017-10-08T09:05:11Z</time>
      </trkpt>
      <trkpt lat="43.17088" lon="6.36998">
        <ele>405.7</ele>
        <time>2017-10-08T09:05:30Z</time>
      </trkpt>
      <trkpt lat="43.17098" lon="6.36998">
        <ele>407.9</ele>
        <time>2017-10-08T09:06:02Z</time>
      </trkpt>
      <trkpt lat="43.17107" lon="6.37003">
        <ele>409.8</ele>
        <time>2017-10-08T09:06:18Z</time>
      </trkpt>
      <trkpt lat="43.17114" lon="6.3701">
        <ele>411.1</ele>
        <time>2017-10-08T09:06:31Z</time>
      </trkpt>
      <trkpt lat="43.17121" lon="6.3702">
        <ele>412.4</ele>
        <time>2017-10-08T09:06:42Z</time>
      </trkpt>
      <trkpt lat="43.17128" lon="6.37029">
        <ele>413.4</ele>
        <time>2017-10-08T09:06:53Z</time>
      </trkpt>
      <trkpt lat="43.17136" lon="6.37036">
        <ele>414.7</ele>
        <time>2017-10-08T09:07:04Z</time>
      </trkpt>
      <trkpt lat="43.17143" lon="6.37045">
        <ele>415.4</ele>
        <time>2017-10-08T09:07:15Z</time>
      </trkpt>
      <trkpt lat="43.17149" lon="6.37053">
        <ele>416.7</ele>
        <time>2017-10-08T09:07:26Z</time>
      </trkpt>
      <trkpt lat="43.17157" lon="6.37059">
        <ele>417.1</ele>
        <time>2017-10-08T09:07:35Z</time>
      </trkpt>
      <trkpt lat="43.17167" lon="6.37062">
        <ele>417.6</ele>
        <time>2017-10-08T09:07:47Z</time>
      </trkpt>
      <trkpt lat="43.17176" lon="6.37065">
        <ele>418.3</ele>
        <time>2017-10-08T09:07:58Z</time>
      </trkpt>
      <trkpt lat="43.17183" lon="6.37074">
        <ele>418.8</ele>
        <time>2017-10-08T09:08:09Z</time>
      </trkpt>
      <trkpt lat="43.17191" lon="6.37081">
        <ele>419.8</ele>
        <time>2017-10-08T09:08:20Z</time>
      </trkpt>
      <trkpt lat="43.17201" lon="6.37083">
        <ele>420.3</ele>
        <time>2017-10-08T09:08:29Z</time>
      </trkpt>
      <trkpt lat="43.17209" lon="6.37087">
        <ele>420.7</ele>
        <time>2017-10-08T09:08:37Z</time>
      </trkpt>
      <trkpt lat="43.17218" lon="6.37091">
        <ele>421</ele>
        <time>2017-10-08T09:08:48Z</time>
      </trkpt>
      <trkpt lat="43.17227" lon="6.37094">
        <ele>421.4</ele>
        <time>2017-10-08T09:08:59Z</time>
      </trkpt>
      <trkpt lat="43.17236" lon="6.37099">
        <ele>422</ele>
        <time>2017-10-08T09:09:13Z</time>
      </trkpt>
      <trkpt lat="43.17245" lon="6.37098">
        <ele>423.2</ele>
        <time>2017-10-08T09:09:41Z</time>
      </trkpt>
      <trkpt lat="43.17253" lon="6.37105">
        <ele>424.4</ele>
        <time>2017-10-08T09:09:55Z</time>
      </trkpt>
      <trkpt lat="43.17259" lon="6.37115">
        <ele>425.1</ele>
        <time>2017-10-08T09:10:07Z</time>
      </trkpt>
      <trkpt lat="43.17265" lon="6.37124">
        <ele>426.6</ele>
        <time>2017-10-08T09:10:21Z</time>
      </trkpt>
      <trkpt lat="43.17273" lon="6.3713">
        <ele>428.3</ele>
        <time>2017-10-08T09:10:35Z</time>
      </trkpt>
      <trkpt lat="43.17282" lon="6.37135">
        <ele>429.7</ele>
        <time>2017-10-08T09:10:49Z</time>
      </trkpt>
      <trkpt lat="43.17287" lon="6.37146">
        <ele>431.5</ele>
        <time>2017-10-08T09:11:05Z</time>
      </trkpt>
      <trkpt lat="43.17297" lon="6.37149">
        <ele>432</ele>
        <time>2017-10-08T09:11:17Z</time>
      </trkpt>
      <trkpt lat="43.17306" lon="6.3715">
        <ele>433.7</ele>
        <time>2017-10-08T09:11:28Z</time>
      </trkpt>
      <trkpt lat="43.17316" lon="6.3715">
        <ele>434.6</ele>
        <time>2017-10-08T09:11:39Z</time>
      </trkpt>
      <trkpt lat="43.17325" lon="6.37151">
        <ele>435.1</ele>
        <time>2017-10-08T09:11:50Z</time>
      </trkpt>
      <trkpt lat="43.17332" lon="6.37159">
        <ele>435.9</ele>
        <time>2017-10-08T09:12:00Z</time>
      </trkpt>
      <trkpt lat="43.17339" lon="6.37167">
        <ele>436.5</ele>
        <time>2017-10-08T09:12:10Z</time>
      </trkpt>
      <trkpt lat="43.17348" lon="6.37167">
        <ele>437.6</ele>
        <time>2017-10-08T09:12:20Z</time>
      </trkpt>
      <trkpt lat="43.17357" lon="6.37165">
        <ele>438.5</ele>
        <time>2017-10-08T09:12:31Z</time>
      </trkpt>
      <trkpt lat="43.17367" lon="6.37164">
        <ele>439.2</ele>
        <time>2017-10-08T09:12:44Z</time>
      </trkpt>
      <trkpt lat="43.17376" lon="6.37162">
        <ele>439.9</ele>
        <time>2017-10-08T09:12:55Z</time>
      </trkpt>
      <trkpt lat="43.17385" lon="6.37163">
        <ele>440.6</ele>
        <time>2017-10-08T09:13:06Z</time>
      </trkpt>
      <trkpt lat="43.17392" lon="6.37171">
        <ele>441.7</ele>
        <time>2017-10-08T09:13:35Z</time>
      </trkpt>
      <trkpt lat="43.17401" lon="6.37168">
        <ele>442.1</ele>
        <time>2017-10-08T09:13:45Z</time>
      </trkpt>
      <trkpt lat="43.1741" lon="6.37168">
        <ele>443.6</ele>
        <time>2017-10-08T09:14:00Z</time>
      </trkpt>
      <trkpt lat="43.17418" lon="6.3716">
        <ele>444.9</ele>
        <time>2017-10-08T09:14:12Z</time>
      </trkpt>
      <trkpt lat="43.17427" lon="6.37157">
        <ele>448</ele>
        <time>2017-10-08T09:15:26Z</time>
      </trkpt>
      <trkpt lat="43.17421" lon="6.37147">
        <ele>447.7</ele>
        <time>2017-10-08T09:16:49Z</time>
      </trkpt>
      <trkpt lat="43.17423" lon="6.37134">
        <ele>449.6</ele>
        <time>2017-10-08T09:20:14Z</time>
      </trkpt>
      <trkpt lat="43.17424" lon="6.37121">
        <ele>449.9</ele>
        <time>2017-10-08T09:20:25Z</time>
      </trkpt>
      <trkpt lat="43.17424" lon="6.37108">
        <ele>450.1</ele>
        <time>2017-10-08T09:20:34Z</time>
      </trkpt>
      <trkpt lat="43.17426" lon="6.37095">
        <ele>450.4</ele>
        <time>2017-10-08T09:20:43Z</time>
      </trkpt>
      <trkpt lat="43.17426" lon="6.37082">
        <ele>450.8</ele>
        <time>2017-10-08T09:21:02Z</time>
      </trkpt>
      <trkpt lat="43.1743" lon="6.3707">
        <ele>451.2</ele>
        <time>2017-10-08T09:21:12Z</time>
      </trkpt>
      <trkpt lat="43.17435" lon="6.37059">
        <ele>451.4</ele>
        <time>2017-10-08T09:21:24Z</time>
      </trkpt>
      <trkpt lat="43.17439" lon="6.37047">
        <ele>451.6</ele>
        <time>2017-10-08T09:21:31Z</time>
      </trkpt>
      <trkpt lat="43.1744" lon="6.37035">
        <ele>452</ele>
        <time>2017-10-08T09:21:39Z</time>
      </trkpt>
      <trkpt lat="43.17441" lon="6.37021">
        <ele>452.3</ele>
        <time>2017-10-08T09:21:46Z</time>
      </trkpt>
      <trkpt lat="43.1744" lon="6.37009">
        <ele>452.9</ele>
        <time>2017-10-08T09:21:54Z</time>
      </trkpt>
      <trkpt lat="43.17438" lon="6.36995">
        <ele>453.3</ele>
        <time>2017-10-08T09:22:03Z</time>
      </trkpt>
      <trkpt lat="43.17438" lon="6.36982">
        <ele>453.5</ele>
        <time>2017-10-08T09:22:10Z</time>
      </trkpt>
      <trkpt lat="43.17434" lon="6.3697">
        <ele>453.6</ele>
        <time>2017-10-08T09:22:17Z</time>
      </trkpt>
      <trkpt lat="43.17428" lon="6.36961">
        <ele>454</ele>
        <time>2017-10-08T09:22:26Z</time>
      </trkpt>
      <trkpt lat="43.17419" lon="6.36957">
        <ele>454.1</ele>
        <time>2017-10-08T09:22:32Z</time>
      </trkpt>
      <trkpt lat="43.17409" lon="6.36954">
        <ele>454.1</ele>
        <time>2017-10-08T09:22:38Z</time>
      </trkpt>
      <trkpt lat="43.17399" lon="6.36953">
        <ele>454.1</ele>
        <time>2017-10-08T09:22:44Z</time>
      </trkpt>
      <trkpt lat="43.1739" lon="6.3695">
        <ele>454.1</ele>
        <time>2017-10-08T09:22:51Z</time>
      </trkpt>
      <trkpt lat="43.1738" lon="6.36954">
        <ele>454.7</ele>
        <time>2017-10-08T09:23:01Z</time>
      </trkpt>
      <trkpt lat="43.17371" lon="6.36956">
        <ele>455.6</ele>
        <time>2017-10-08T09:23:12Z</time>
      </trkpt>
      <trkpt lat="43.17362" lon="6.36956">
        <ele>455.9</ele>
        <time>2017-10-08T09:23:19Z</time>
      </trkpt>
      <trkpt lat="43.17353" lon="6.36957">
        <ele>456.3</ele>
        <time>2017-10-08T09:23:28Z</time>
      </trkpt>
      <trkpt lat="43.17344" lon="6.36959">
        <ele>456.6</ele>
        <time>2017-10-08T09:23:37Z</time>
      </trkpt>
      <trkpt lat="43.17334" lon="6.36961">
        <ele>457</ele>
        <time>2017-10-08T09:23:48Z</time>
      </trkpt>
      <trkpt lat="43.17325" lon="6.36961">
        <ele>457.4</ele>
        <time>2017-10-08T09:23:56Z</time>
      </trkpt>
      <trkpt lat="43.17316" lon="6.36964">
        <ele>457.9</ele>
        <time>2017-10-08T09:24:06Z</time>
      </trkpt>
      <trkpt lat="43.17307" lon="6.36961">
        <ele>458.1</ele>
        <time>2017-10-08T09:24:15Z</time>
      </trkpt>
      <trkpt lat="43.17301" lon="6.3695">
        <ele>458.8</ele>
        <time>2017-10-08T09:24:28Z</time>
      </trkpt>
      <trkpt lat="43.17299" lon="6.36936">
        <ele>460</ele>
        <time>2017-10-08T09:24:38Z</time>
      </trkpt>
      <trkpt lat="43.17297" lon="6.36923">
        <ele>460.3</ele>
        <time>2017-10-08T09:24:47Z</time>
      </trkpt>
      <trkpt lat="43.17291" lon="6.36915">
        <ele>460.4</ele>
        <time>2017-10-08T09:24:54Z</time>
      </trkpt>
      <trkpt lat="43.17284" lon="6.36905">
        <ele>460.6</ele>
        <time>2017-10-08T09:25:02Z</time>
      </trkpt>
      <trkpt lat="43.17275" lon="6.36899">
        <ele>461.2</ele>
        <time>2017-10-08T09:25:10Z</time>
      </trkpt>
      <trkpt lat="43.17266" lon="6.36892">
        <ele>461.7</ele>
        <time>2017-10-08T09:25:18Z</time>
      </trkpt>
      <trkpt lat="43.17257" lon="6.36886">
        <ele>461.8</ele>
        <time>2017-10-08T09:25:27Z</time>
      </trkpt>
      <trkpt lat="43.17249" lon="6.36881">
        <ele>461.9</ele>
        <time>2017-10-08T09:25:34Z</time>
      </trkpt>
      <trkpt lat="43.17241" lon="6.36874">
        <ele>461.7</ele>
        <time>2017-10-08T09:25:42Z</time>
      </trkpt>
      <trkpt lat="43.17233" lon="6.36866">
        <ele>461.5</ele>
        <time>2017-10-08T09:25:50Z</time>
      </trkpt>
      <trkpt lat="43.17224" lon="6.36861">
        <ele>461.2</ele>
        <time>2017-10-08T09:25:57Z</time>
      </trkpt>
      <trkpt lat="43.17216" lon="6.36853">
        <ele>460.6</ele>
        <time>2017-10-08T09:26:05Z</time>
      </trkpt>
      <trkpt lat="43.17212" lon="6.36841">
        <ele>459.9</ele>
        <time>2017-10-08T09:26:15Z</time>
      </trkpt>
      <trkpt lat="43.17209" lon="6.36828">
        <ele>459.4</ele>
        <time>2017-10-08T09:26:25Z</time>
      </trkpt>
      <trkpt lat="43.17207" lon="6.36816">
        <ele>459</ele>
        <time>2017-10-08T09:26:33Z</time>
      </trkpt>
      <trkpt lat="43.17204" lon="6.36804">
        <ele>458.9</ele>
        <time>2017-10-08T09:26:41Z</time>
      </trkpt>
      <trkpt lat="43.17196" lon="6.36797">
        <ele>458.5</ele>
        <time>2017-10-08T09:27:56Z</time>
      </trkpt>
      <trkpt lat="43.17189" lon="6.36787">
        <ele>457.8</ele>
        <time>2017-10-08T09:28:07Z</time>
      </trkpt>
      <trkpt lat="43.17184" lon="6.36775">
        <ele>455.3</ele>
        <time>2017-10-08T09:28:35Z</time>
      </trkpt>
      <trkpt lat="43.1718" lon="6.36763">
        <ele>454.9</ele>
        <time>2017-10-08T09:28:45Z</time>
      </trkpt>
      <trkpt lat="43.17175" lon="6.36752">
        <ele>454.4</ele>
        <time>2017-10-08T09:28:54Z</time>
      </trkpt>
      <trkpt lat="43.17169" lon="6.36742">
        <ele>453.9</ele>
        <time>2017-10-08T09:29:02Z</time>
      </trkpt>
      <trkpt lat="43.17164" lon="6.3673">
        <ele>453.7</ele>
        <time>2017-10-08T09:29:11Z</time>
      </trkpt>
      <trkpt lat="43.17159" lon="6.36719">
        <ele>453.2</ele>
        <time>2017-10-08T09:29:20Z</time>
      </trkpt>
      <trkpt lat="43.17153" lon="6.36709">
        <ele>453</ele>
        <time>2017-10-08T09:29:28Z</time>
      </trkpt>
      <trkpt lat="43.17147" lon="6.36697">
        <ele>452.5</ele>
        <time>2017-10-08T09:29:37Z</time>
      </trkpt>
      <trkpt lat="43.17145" lon="6.36685">
        <ele>451.8</ele>
        <time>2017-10-08T09:29:45Z</time>
      </trkpt>
      <trkpt lat="43.17141" lon="6.36674">
        <ele>451.3</ele>
        <time>2017-10-08T09:29:53Z</time>
      </trkpt>
      <trkpt lat="43.17139" lon="6.3666">
        <ele>451</ele>
        <time>2017-10-08T09:30:02Z</time>
      </trkpt>
      <trkpt lat="43.17136" lon="6.36648">
        <ele>451.1</ele>
        <time>2017-10-08T09:30:09Z</time>
      </trkpt>
      <trkpt lat="43.17132" lon="6.36637">
        <ele>450.7</ele>
        <time>2017-10-08T09:30:17Z</time>
      </trkpt>
      <trkpt lat="43.17128" lon="6.36625">
        <ele>450.3</ele>
        <time>2017-10-08T09:30:25Z</time>
      </trkpt>
      <trkpt lat="43.17127" lon="6.36612">
        <ele>450</ele>
        <time>2017-10-08T09:30:32Z</time>
      </trkpt>
      <trkpt lat="43.17125" lon="6.36599">
        <ele>450</ele>
        <time>2017-10-08T09:30:40Z</time>
      </trkpt>
      <trkpt lat="43.17121" lon="6.36587">
        <ele>450.5</ele>
        <time>2017-10-08T09:30:48Z</time>
      </trkpt>
      <trkpt lat="43.17116" lon="6.36577">
        <ele>450.7</ele>
        <time>2017-10-08T09:30:55Z</time>
      </trkpt>
      <trkpt lat="43.17111" lon="6.36565">
        <ele>451.1</ele>
        <time>2017-10-08T09:31:03Z</time>
      </trkpt>
      <trkpt lat="43.17107" lon="6.36553">
        <ele>451.2</ele>
        <time>2017-10-08T09:31:12Z</time>
      </trkpt>
      <trkpt lat="43.17105" lon="6.36541">
        <ele>451.1</ele>
        <time>2017-10-08T09:31:20Z</time>
      </trkpt>
      <trkpt lat="43.17101" lon="6.36529">
        <ele>451.1</ele>
        <time>2017-10-08T09:31:26Z</time>
      </trkpt>
      <trkpt lat="43.17095" lon="6.36519">
        <ele>450.7</ele>
        <time>2017-10-08T09:31:32Z</time>
      </trkpt>
      <trkpt lat="43.17097" lon="6.36506">
        <ele>449.3</ele>
        <time>2017-10-08T09:31:44Z</time>
      </trkpt>
      <trkpt lat="43.17098" lon="6.36494">
        <ele>447.4</ele>
        <time>2017-10-08T09:31:55Z</time>
      </trkpt>
      <trkpt lat="43.17097" lon="6.36481">
        <ele>445.9</ele>
        <time>2017-10-08T09:32:02Z</time>
      </trkpt>
      <trkpt lat="43.17095" lon="6.36468">
        <ele>444.4</ele>
        <time>2017-10-08T09:32:09Z</time>
      </trkpt>
      <trkpt lat="43.17092" lon="6.36455">
        <ele>443.6</ele>
        <time>2017-10-08T09:32:17Z</time>
      </trkpt>
      <trkpt lat="43.17092" lon="6.36443">
        <ele>443</ele>
        <time>2017-10-08T09:32:25Z</time>
      </trkpt>
      <trkpt lat="43.17093" lon="6.3643">
        <ele>442.3</ele>
        <time>2017-10-08T09:32:33Z</time>
      </trkpt>
      <trkpt lat="43.1709" lon="6.36416">
        <ele>441.5</ele>
        <time>2017-10-08T09:32:42Z</time>
      </trkpt>
      <trkpt lat="43.17085" lon="6.36405">
        <ele>440.6</ele>
        <time>2017-10-08T09:32:50Z</time>
      </trkpt>
      <trkpt lat="43.1708" lon="6.36394">
        <ele>439.9</ele>
        <time>2017-10-08T09:32:58Z</time>
      </trkpt>
      <trkpt lat="43.17076" lon="6.36383">
        <ele>439.6</ele>
        <time>2017-10-08T09:33:49Z</time>
      </trkpt>
      <trkpt lat="43.17073" lon="6.3637">
        <ele>439.2</ele>
        <time>2017-10-08T09:35:50Z</time>
      </trkpt>
      <trkpt lat="43.1708" lon="6.36359">
        <ele>439</ele>
        <time>2017-10-08T09:35:59Z</time>
      </trkpt>
      <trkpt lat="43.17086" lon="6.36349">
        <ele>438.9</ele>
        <time>2017-10-08T09:36:07Z</time>
      </trkpt>
      <trkpt lat="43.17092" lon="6.36338">
        <ele>438.9</ele>
        <time>2017-10-08T09:36:14Z</time>
      </trkpt>
      <trkpt lat="43.17096" lon="6.36326">
        <ele>438.8</ele>
        <time>2017-10-08T09:36:23Z</time>
      </trkpt>
      <trkpt lat="43.17096" lon="6.36313">
        <ele>438.8</ele>
        <time>2017-10-08T09:36:46Z</time>
      </trkpt>
      <trkpt lat="43.17096" lon="6.36301">
        <ele>439</ele>
        <time>2017-10-08T09:37:26Z</time>
      </trkpt>
      <trkpt lat="43.17093" lon="6.36288">
        <ele>438.9</ele>
        <time>2017-10-08T09:37:36Z</time>
      </trkpt>
      <trkpt lat="43.17092" lon="6.36275">
        <ele>438.7</ele>
        <time>2017-10-08T09:37:44Z</time>
      </trkpt>
      <trkpt lat="43.17088" lon="6.36263">
        <ele>438.7</ele>
        <time>2017-10-08T09:37:54Z</time>
      </trkpt>
      <trkpt lat="43.17083" lon="6.36252">
        <ele>439</ele>
        <time>2017-10-08T09:38:02Z</time>
      </trkpt>
      <trkpt lat="43.17078" lon="6.36241">
        <ele>439.4</ele>
        <time>2017-10-08T09:38:10Z</time>
      </trkpt>
      <trkpt lat="43.17071" lon="6.36231">
        <ele>439.3</ele>
        <time>2017-10-08T09:38:18Z</time>
      </trkpt>
      <trkpt lat="43.17063" lon="6.36224">
        <ele>439.4</ele>
        <time>2017-10-08T09:38:24Z</time>
      </trkpt>
      <trkpt lat="43.17057" lon="6.36214">
        <ele>439.5</ele>
        <time>2017-10-08T09:38:29Z</time>
      </trkpt>
      <trkpt lat="43.17051" lon="6.36205">
        <ele>438.6</ele>
        <time>2017-10-08T09:38:37Z</time>
      </trkpt>
      <trkpt lat="43.17045" lon="6.36194">
        <ele>437.5</ele>
        <time>2017-10-08T09:38:45Z</time>
      </trkpt>
      <trkpt lat="43.17038" lon="6.36185">
        <ele>436.7</ele>
        <time>2017-10-08T09:38:52Z</time>
      </trkpt>
      <trkpt lat="43.1703" lon="6.36179">
        <ele>436.1</ele>
        <time>2017-10-08T09:38:59Z</time>
      </trkpt>
      <trkpt lat="43.17021" lon="6.36174">
        <ele>435</ele>
        <time>2017-10-08T09:39:07Z</time>
      </trkpt>
      <trkpt lat="43.17012" lon="6.3617">
        <ele>434.2</ele>
        <time>2017-10-08T09:39:18Z</time>
      </trkpt>
      <trkpt lat="43.17003" lon="6.36164">
        <ele>433.5</ele>
        <time>2017-10-08T09:39:27Z</time>
      </trkpt>
      <trkpt lat="43.16994" lon="6.36159">
        <ele>433.1</ele>
        <time>2017-10-08T09:39:33Z</time>
      </trkpt>
      <trkpt lat="43.16983" lon="6.36155">
        <ele>432.7</ele>
        <time>2017-10-08T09:39:41Z</time>
      </trkpt>
      <trkpt lat="43.16974" lon="6.3615">
        <ele>432.8</ele>
        <time>2017-10-08T09:39:49Z</time>
      </trkpt>
      <trkpt lat="43.16965" lon="6.36146">
        <ele>432.8</ele>
        <time>2017-10-08T09:39:56Z</time>
      </trkpt>
      <trkpt lat="43.16957" lon="6.36138">
        <ele>433.3</ele>
        <time>2017-10-08T09:40:08Z</time>
      </trkpt>
      <trkpt lat="43.16949" lon="6.36131">
        <ele>434.6</ele>
        <time>2017-10-08T09:40:24Z</time>
      </trkpt>
      <trkpt lat="43.16941" lon="6.36125">
        <ele>435.4</ele>
        <time>2017-10-08T09:40:35Z</time>
      </trkpt>
      <trkpt lat="43.16935" lon="6.36114">
        <ele>437.4</ele>
        <time>2017-10-08T09:40:51Z</time>
      </trkpt>
      <trkpt lat="43.16938" lon="6.36102">
        <ele>439</ele>
        <time>2017-10-08T09:41:04Z</time>
      </trkpt>
      <trkpt lat="43.16942" lon="6.36089">
        <ele>439.5</ele>
        <time>2017-10-08T09:41:15Z</time>
      </trkpt>
      <trkpt lat="43.16947" lon="6.36078">
        <ele>440.7</ele>
        <time>2017-10-08T09:41:25Z</time>
      </trkpt>
      <trkpt lat="43.16952" lon="6.36067">
        <ele>440.6</ele>
        <time>2017-10-08T09:41:34Z</time>
      </trkpt>
      <trkpt lat="43.16955" lon="6.36054">
        <ele>440.7</ele>
        <time>2017-10-08T09:41:42Z</time>
      </trkpt>
      <trkpt lat="43.16958" lon="6.3604">
        <ele>441</ele>
        <time>2017-10-08T09:41:49Z</time>
      </trkpt>
      <trkpt lat="43.16961" lon="6.36028">
        <ele>441.4</ele>
        <time>2017-10-08T09:41:56Z</time>
      </trkpt>
      <trkpt lat="43.16964" lon="6.36015">
        <ele>442.7</ele>
        <time>2017-10-08T09:42:07Z</time>
      </trkpt>
      <trkpt lat="43.16969" lon="6.36004">
        <ele>444.4</ele>
        <time>2017-10-08T09:42:28Z</time>
      </trkpt>
      <trkpt lat="43.16975" lon="6.35994">
        <ele>444.5</ele>
        <time>2017-10-08T09:42:36Z</time>
      </trkpt>
      <trkpt lat="43.16978" lon="6.35982">
        <ele>444.3</ele>
        <time>2017-10-08T09:42:44Z</time>
      </trkpt>
      <trkpt lat="43.16981" lon="6.3597">
        <ele>444.2</ele>
        <time>2017-10-08T09:42:52Z</time>
      </trkpt>
      <trkpt lat="43.16987" lon="6.3596">
        <ele>445.1</ele>
        <time>2017-10-08T09:43:07Z</time>
      </trkpt>
      <trkpt lat="43.16991" lon="6.35948">
        <ele>446.1</ele>
        <time>2017-10-08T09:43:16Z</time>
      </trkpt>
      <trkpt lat="43.16993" lon="6.35935">
        <ele>447</ele>
        <time>2017-10-08T09:43:24Z</time>
      </trkpt>
      <trkpt lat="43.16995" lon="6.35921">
        <ele>447.8</ele>
        <time>2017-10-08T09:43:31Z</time>
      </trkpt>
      <trkpt lat="43.16995" lon="6.35909">
        <ele>448.4</ele>
        <time>2017-10-08T09:43:39Z</time>
      </trkpt>
      <trkpt lat="43.16992" lon="6.35896">
        <ele>449.6</ele>
        <time>2017-10-08T09:43:50Z</time>
      </trkpt>
      <trkpt lat="43.1699" lon="6.35883">
        <ele>451.7</ele>
        <time>2017-10-08T09:44:03Z</time>
      </trkpt>
      <trkpt lat="43.16992" lon="6.35871">
        <ele>452.8</ele>
        <time>2017-10-08T09:44:14Z</time>
      </trkpt>
      <trkpt lat="43.16999" lon="6.35862">
        <ele>454.7</ele>
        <time>2017-10-08T09:44:27Z</time>
      </trkpt>
      <trkpt lat="43.17004" lon="6.35851">
        <ele>455.5</ele>
        <time>2017-10-08T09:44:37Z</time>
      </trkpt>
      <trkpt lat="43.17009" lon="6.3584">
        <ele>456.2</ele>
        <time>2017-10-08T09:44:45Z</time>
      </trkpt>
      <trkpt lat="43.17012" lon="6.35828">
        <ele>456.4</ele>
        <time>2017-10-08T09:44:52Z</time>
      </trkpt>
      <trkpt lat="43.17015" lon="6.35816">
        <ele>456.6</ele>
        <time>2017-10-08T09:44:59Z</time>
      </trkpt>
      <trkpt lat="43.17013" lon="6.35804">
        <ele>456.5</ele>
        <time>2017-10-08T09:45:07Z</time>
      </trkpt>
      <trkpt lat="43.17009" lon="6.35793">
        <ele>456.2</ele>
        <time>2017-10-08T09:45:15Z</time>
      </trkpt>
      <trkpt lat="43.17001" lon="6.35785">
        <ele>454.5</ele>
        <time>2017-10-08T09:45:28Z</time>
      </trkpt>
      <trkpt lat="43.16998" lon="6.35772">
        <ele>453.1</ele>
        <time>2017-10-08T09:45:38Z</time>
      </trkpt>
      <trkpt lat="43.16994" lon="6.3576">
        <ele>452</ele>
        <time>2017-10-08T09:45:46Z</time>
      </trkpt>
      <trkpt lat="43.1699" lon="6.35748">
        <ele>451.5</ele>
        <time>2017-10-08T09:45:53Z</time>
      </trkpt>
      <trkpt lat="43.16986" lon="6.35736">
        <ele>451.2</ele>
        <time>2017-10-08T09:46:01Z</time>
      </trkpt>
      <trkpt lat="43.16981" lon="6.35725">
        <ele>451.4</ele>
        <time>2017-10-08T09:46:09Z</time>
      </trkpt>
      <trkpt lat="43.16978" lon="6.35712">
        <ele>451.7</ele>
        <time>2017-10-08T09:46:18Z</time>
      </trkpt>
      <trkpt lat="43.16972" lon="6.35702">
        <ele>451.9</ele>
        <time>2017-10-08T09:46:26Z</time>
      </trkpt>
      <trkpt lat="43.16965" lon="6.35695">
        <ele>452.2</ele>
        <time>2017-10-08T09:46:33Z</time>
      </trkpt>
      <trkpt lat="43.16958" lon="6.35686">
        <ele>452.2</ele>
        <time>2017-10-08T09:46:41Z</time>
      </trkpt>
      <trkpt lat="43.16954" lon="6.35674">
        <ele>452</ele>
        <time>2017-10-08T09:46:50Z</time>
      </trkpt>
      <trkpt lat="43.16949" lon="6.35663">
        <ele>451.5</ele>
        <time>2017-10-08T09:46:58Z</time>
      </trkpt>
      <trkpt lat="43.16944" lon="6.35652">
        <ele>451.5</ele>
        <time>2017-10-08T09:47:05Z</time>
      </trkpt>
      <trkpt lat="43.16941" lon="6.3564">
        <ele>451.4</ele>
        <time>2017-10-08T09:47:12Z</time>
      </trkpt>
      <trkpt lat="43.16936" lon="6.35629">
        <ele>450.8</ele>
        <time>2017-10-08T09:47:20Z</time>
      </trkpt>
      <trkpt lat="43.16931" lon="6.35616">
        <ele>450.5</ele>
        <time>2017-10-08T09:47:28Z</time>
      </trkpt>
      <trkpt lat="43.16924" lon="6.35606">
        <ele>450.3</ele>
        <time>2017-10-08T09:47:36Z</time>
      </trkpt>
      <trkpt lat="43.16919" lon="6.35596">
        <ele>450.2</ele>
        <time>2017-10-08T09:47:44Z</time>
      </trkpt>
      <trkpt lat="43.16914" lon="6.35585">
        <ele>449.9</ele>
        <time>2017-10-08T09:47:52Z</time>
      </trkpt>
      <trkpt lat="43.16907" lon="6.35577">
        <ele>449.7</ele>
        <time>2017-10-08T09:48:00Z</time>
      </trkpt>
      <trkpt lat="43.169" lon="6.3557">
        <ele>449.6</ele>
        <time>2017-10-08T09:48:06Z</time>
      </trkpt>
      <trkpt lat="43.16892" lon="6.35561">
        <ele>449.6</ele>
        <time>2017-10-08T09:48:13Z</time>
      </trkpt>
      <trkpt lat="43.16887" lon="6.3555">
        <ele>449.7</ele>
        <time>2017-10-08T09:48:24Z</time>
      </trkpt>
      <trkpt lat="43.16882" lon="6.35539">
        <ele>449.8</ele>
        <time>2017-10-08T09:48:34Z</time>
      </trkpt>
      <trkpt lat="43.16874" lon="6.35533">
        <ele>449.9</ele>
        <time>2017-10-08T09:48:44Z</time>
      </trkpt>
      <trkpt lat="43.16865" lon="6.35527">
        <ele>450.4</ele>
        <time>2017-10-08T09:48:51Z</time>
      </trkpt>
      <trkpt lat="43.16857" lon="6.35521">
        <ele>450.9</ele>
        <time>2017-10-08T09:49:02Z</time>
      </trkpt>
      <trkpt lat="43.16852" lon="6.3551">
        <ele>450.8</ele>
        <time>2017-10-08T09:49:11Z</time>
      </trkpt>
      <trkpt lat="43.16847" lon="6.35499">
        <ele>450.5</ele>
        <time>2017-10-08T09:49:20Z</time>
      </trkpt>
      <trkpt lat="43.1684" lon="6.3549">
        <ele>450</ele>
        <time>2017-10-08T09:49:27Z</time>
      </trkpt>
      <trkpt lat="43.16833" lon="6.35481">
        <ele>449.5</ele>
        <time>2017-10-08T09:49:34Z</time>
      </trkpt>
      <trkpt lat="43.16825" lon="6.35473">
        <ele>449.4</ele>
        <time>2017-10-08T09:49:42Z</time>
      </trkpt>
      <trkpt lat="43.16817" lon="6.35465">
        <ele>449.3</ele>
        <time>2017-10-08T09:49:51Z</time>
      </trkpt>
      <trkpt lat="43.16811" lon="6.35456">
        <ele>449.5</ele>
        <time>2017-10-08T09:50:00Z</time>
      </trkpt>
      <trkpt lat="43.16803" lon="6.35448">
        <ele>449.7</ele>
        <time>2017-10-08T09:50:07Z</time>
      </trkpt>
      <trkpt lat="43.16795" lon="6.3544">
        <ele>449.4</ele>
        <time>2017-10-08T09:50:15Z</time>
      </trkpt>
      <trkpt lat="43.16787" lon="6.35433">
        <ele>448.5</ele>
        <time>2017-10-08T09:50:25Z</time>
      </trkpt>
      <trkpt lat="43.16778" lon="6.35427">
        <ele>447.3</ele>
        <time>2017-10-08T09:50:35Z</time>
      </trkpt>
      <trkpt lat="43.16769" lon="6.35426">
        <ele>446.2</ele>
        <time>2017-10-08T09:50:44Z</time>
      </trkpt>
      <trkpt lat="43.16759" lon="6.35426">
        <ele>445.3</ele>
        <time>2017-10-08T09:50:53Z</time>
      </trkpt>
      <trkpt lat="43.1675" lon="6.3542">
        <ele>444.6</ele>
        <time>2017-10-08T09:51:03Z</time>
      </trkpt>
      <trkpt lat="43.16744" lon="6.3541">
        <ele>444.4</ele>
        <time>2017-10-08T09:51:14Z</time>
      </trkpt>
      <trkpt lat="43.1674" lon="6.35398">
        <ele>444.8</ele>
        <time>2017-10-08T09:51:24Z</time>
      </trkpt>
      <trkpt lat="43.16735" lon="6.35387">
        <ele>443.9</ele>
        <time>2017-10-08T09:51:34Z</time>
      </trkpt>
      <trkpt lat="43.16729" lon="6.35377">
        <ele>443.4</ele>
        <time>2017-10-08T09:51:43Z</time>
      </trkpt>
      <trkpt lat="43.16724" lon="6.35366">
        <ele>442.5</ele>
        <time>2017-10-08T09:51:53Z</time>
      </trkpt>
      <trkpt lat="43.16722" lon="6.35353">
        <ele>441.4</ele>
        <time>2017-10-08T09:52:03Z</time>
      </trkpt>
      <trkpt lat="43.1672" lon="6.35339">
        <ele>440.2</ele>
        <time>2017-10-08T09:52:12Z</time>
      </trkpt>
      <trkpt lat="43.16721" lon="6.35326">
        <ele>439.9</ele>
        <time>2017-10-08T09:52:21Z</time>
      </trkpt>
      <trkpt lat="43.16722" lon="6.35314">
        <ele>439.8</ele>
        <time>2017-10-08T09:52:28Z</time>
      </trkpt>
      <trkpt lat="43.16724" lon="6.35302">
        <ele>439.7</ele>
        <time>2017-10-08T09:52:37Z</time>
      </trkpt>
      <trkpt lat="43.16724" lon="6.35288">
        <ele>440.1</ele>
        <time>2017-10-08T09:52:45Z</time>
      </trkpt>
      <trkpt lat="43.16725" lon="6.35275">
        <ele>440.4</ele>
        <time>2017-10-08T09:52:54Z</time>
      </trkpt>
      <trkpt lat="43.16725" lon="6.35263">
        <ele>440.6</ele>
        <time>2017-10-08T09:53:24Z</time>
      </trkpt>
      <trkpt lat="43.16725" lon="6.3525">
        <ele>440.1</ele>
        <time>2017-10-08T09:53:33Z</time>
      </trkpt>
      <trkpt lat="43.16727" lon="6.35237">
        <ele>439.7</ele>
        <time>2017-10-08T09:53:41Z</time>
      </trkpt>
      <trkpt lat="43.16731" lon="6.35224">
        <ele>439.6</ele>
        <time>2017-10-08T09:53:48Z</time>
      </trkpt>
      <trkpt lat="43.16731" lon="6.35211">
        <ele>439.6</ele>
        <time>2017-10-08T09:53:56Z</time>
      </trkpt>
      <trkpt lat="43.16725" lon="6.35202">
        <ele>439.6</ele>
        <time>2017-10-08T09:54:39Z</time>
      </trkpt>
      <trkpt lat="43.16723" lon="6.35189">
        <ele>439.7</ele>
        <time>2017-10-08T09:54:49Z</time>
      </trkpt>
      <trkpt lat="43.1672" lon="6.35176">
        <ele>439</ele>
        <time>2017-10-08T09:55:00Z</time>
      </trkpt>
      <trkpt lat="43.16718" lon="6.35163">
        <ele>437.8</ele>
        <time>2017-10-08T09:55:11Z</time>
      </trkpt>
      <trkpt lat="43.16719" lon="6.3515">
        <ele>437.3</ele>
        <time>2017-10-08T09:55:19Z</time>
      </trkpt>
      <trkpt lat="43.16722" lon="6.35137">
        <ele>436.8</ele>
        <time>2017-10-08T09:55:28Z</time>
      </trkpt>
      <trkpt lat="43.16721" lon="6.35124">
        <ele>436</ele>
        <time>2017-10-08T09:55:36Z</time>
      </trkpt>
      <trkpt lat="43.16717" lon="6.35112">
        <ele>435.7</ele>
        <time>2017-10-08T09:55:43Z</time>
      </trkpt>
      <trkpt lat="43.16713" lon="6.35101">
        <ele>435.5</ele>
        <time>2017-10-08T09:55:51Z</time>
      </trkpt>
      <trkpt lat="43.16715" lon="6.35088">
        <ele>435</ele>
        <time>2017-10-08T09:55:59Z</time>
      </trkpt>
      <trkpt lat="43.1672" lon="6.35075">
        <ele>434.1</ele>
        <time>2017-10-08T09:56:08Z</time>
      </trkpt>
      <trkpt lat="43.16725" lon="6.35063">
        <ele>433.5</ele>
        <time>2017-10-08T09:56:17Z</time>
      </trkpt>
      <trkpt lat="43.16727" lon="6.3505">
        <ele>432.5</ele>
        <time>2017-10-08T09:56:25Z</time>
      </trkpt>
      <trkpt lat="43.16721" lon="6.3504">
        <ele>431.5</ele>
        <time>2017-10-08T09:56:35Z</time>
      </trkpt>
      <trkpt lat="43.16713" lon="6.35034">
        <ele>430.9</ele>
        <time>2017-10-08T09:56:43Z</time>
      </trkpt>
      <trkpt lat="43.16704" lon="6.35035">
        <ele>430</ele>
        <time>2017-10-08T09:57:57Z</time>
      </trkpt>
      <trkpt lat="43.16713" lon="6.35038">
        <ele>431.5</ele>
        <time>2017-10-08T11:01:48Z</time>
      </trkpt>
      <trkpt lat="43.16722" lon="6.35045">
        <ele>431.8</ele>
        <time>2017-10-08T11:01:58Z</time>
      </trkpt>
      <trkpt lat="43.16729" lon="6.35036">
        <ele>432</ele>
        <time>2017-10-08T11:02:10Z</time>
      </trkpt>
      <trkpt lat="43.16731" lon="6.35024">
        <ele>432.8</ele>
        <time>2017-10-08T11:02:25Z</time>
      </trkpt>
      <trkpt lat="43.16734" lon="6.35012">
        <ele>433.1</ele>
        <time>2017-10-08T11:02:38Z</time>
      </trkpt>
      <trkpt lat="43.16737" lon="6.35">
        <ele>432.4</ele>
        <time>2017-10-08T11:02:52Z</time>
      </trkpt>
      <trkpt lat="43.16741" lon="6.34988">
        <ele>431.4</ele>
        <time>2017-10-08T11:03:04Z</time>
      </trkpt>
      <trkpt lat="43.16745" lon="6.34977">
        <ele>429.9</ele>
        <time>2017-10-08T11:03:17Z</time>
      </trkpt>
      <trkpt lat="43.1675" lon="6.34966">
        <ele>428.5</ele>
        <time>2017-10-08T11:03:28Z</time>
      </trkpt>
      <trkpt lat="43.16756" lon="6.34957">
        <ele>427.2</ele>
        <time>2017-10-08T11:03:38Z</time>
      </trkpt>
      <trkpt lat="43.16761" lon="6.34945">
        <ele>426.4</ele>
        <time>2017-10-08T11:03:47Z</time>
      </trkpt>
      <trkpt lat="43.16766" lon="6.34935">
        <ele>425.8</ele>
        <time>2017-10-08T11:03:56Z</time>
      </trkpt>
      <trkpt lat="43.16772" lon="6.34924">
        <ele>425.2</ele>
        <time>2017-10-08T11:04:07Z</time>
      </trkpt>
      <trkpt lat="43.16775" lon="6.34911">
        <ele>424.3</ele>
        <time>2017-10-08T11:04:17Z</time>
      </trkpt>
      <trkpt lat="43.16774" lon="6.34899">
        <ele>422.5</ele>
        <time>2017-10-08T11:05:00Z</time>
      </trkpt>
      <trkpt lat="43.16775" lon="6.34886">
        <ele>422.1</ele>
        <time>2017-10-08T11:05:09Z</time>
      </trkpt>
      <trkpt lat="43.16777" lon="6.34873">
        <ele>421.7</ele>
        <time>2017-10-08T11:05:18Z</time>
      </trkpt>
      <trkpt lat="43.16778" lon="6.3486">
        <ele>421.4</ele>
        <time>2017-10-08T11:05:26Z</time>
      </trkpt>
      <trkpt lat="43.16779" lon="6.34846">
        <ele>421.5</ele>
        <time>2017-10-08T11:05:34Z</time>
      </trkpt>
      <trkpt lat="43.16779" lon="6.34832">
        <ele>421.5</ele>
        <time>2017-10-08T11:05:43Z</time>
      </trkpt>
      <trkpt lat="43.1678" lon="6.34819">
        <ele>421.6</ele>
        <time>2017-10-08T11:05:52Z</time>
      </trkpt>
      <trkpt lat="43.16782" lon="6.34807">
        <ele>421.7</ele>
        <time>2017-10-08T11:06:01Z</time>
      </trkpt>
      <trkpt lat="43.16783" lon="6.34794">
        <ele>422.4</ele>
        <time>2017-10-08T11:06:11Z</time>
      </trkpt>
      <trkpt lat="43.16782" lon="6.34781">
        <ele>423.3</ele>
        <time>2017-10-08T11:06:22Z</time>
      </trkpt>
      <trkpt lat="43.16779" lon="6.34769">
        <ele>424.5</ele>
        <time>2017-10-08T11:06:33Z</time>
      </trkpt>
      <trkpt lat="43.16773" lon="6.3476">
        <ele>425.5</ele>
        <time>2017-10-08T11:06:42Z</time>
      </trkpt>
      <trkpt lat="43.1677" lon="6.34748">
        <ele>426.9</ele>
        <time>2017-10-08T11:06:53Z</time>
      </trkpt>
      <trkpt lat="43.16773" lon="6.34735">
        <ele>428.8</ele>
        <time>2017-10-08T11:07:05Z</time>
      </trkpt>
      <trkpt lat="43.16776" lon="6.34723">
        <ele>430.3</ele>
        <time>2017-10-08T11:07:16Z</time>
      </trkpt>
      <trkpt lat="43.16775" lon="6.3471">
        <ele>431.3</ele>
        <time>2017-10-08T11:07:25Z</time>
      </trkpt>
      <trkpt lat="43.16772" lon="6.34699">
        <ele>431.7</ele>
        <time>2017-10-08T11:07:33Z</time>
      </trkpt>
      <trkpt lat="43.16769" lon="6.34687">
        <ele>431.7</ele>
        <time>2017-10-08T11:07:42Z</time>
      </trkpt>
      <trkpt lat="43.16769" lon="6.34674">
        <ele>431.3</ele>
        <time>2017-10-08T11:07:53Z</time>
      </trkpt>
      <trkpt lat="43.1677" lon="6.3466">
        <ele>430.7</ele>
        <time>2017-10-08T11:08:02Z</time>
      </trkpt>
      <trkpt lat="43.16769" lon="6.34648">
        <ele>430.4</ele>
        <time>2017-10-08T11:08:09Z</time>
      </trkpt>
      <trkpt lat="43.16768" lon="6.34635">
        <ele>430.3</ele>
        <time>2017-10-08T11:08:18Z</time>
      </trkpt>
      <trkpt lat="43.16765" lon="6.34622">
        <ele>430.6</ele>
        <time>2017-10-08T11:08:30Z</time>
      </trkpt>
      <trkpt lat="43.1676" lon="6.3461">
        <ele>430.9</ele>
        <time>2017-10-08T11:08:39Z</time>
      </trkpt>
      <trkpt lat="43.16754" lon="6.34601">
        <ele>431.4</ele>
        <time>2017-10-08T11:08:47Z</time>
      </trkpt>
      <trkpt lat="43.16749" lon="6.3459">
        <ele>432</ele>
        <time>2017-10-08T11:08:55Z</time>
      </trkpt>
      <trkpt lat="43.16743" lon="6.34579">
        <ele>432.6</ele>
        <time>2017-10-08T11:09:03Z</time>
      </trkpt>
      <trkpt lat="43.16738" lon="6.34569">
        <ele>433.3</ele>
        <time>2017-10-08T11:09:13Z</time>
      </trkpt>
      <trkpt lat="43.1673" lon="6.34561">
        <ele>433.8</ele>
        <time>2017-10-08T11:09:22Z</time>
      </trkpt>
      <trkpt lat="43.16724" lon="6.34552">
        <ele>432.8</ele>
        <time>2017-10-08T11:09:51Z</time>
      </trkpt>
      <trkpt lat="43.16726" lon="6.3454">
        <ele>432.5</ele>
        <time>2017-10-08T11:10:01Z</time>
      </trkpt>
      <trkpt lat="43.16733" lon="6.3453">
        <ele>432.5</ele>
        <time>2017-10-08T11:10:13Z</time>
      </trkpt>
      <trkpt lat="43.16735" lon="6.34518">
        <ele>433.3</ele>
        <time>2017-10-08T11:10:24Z</time>
      </trkpt>
      <trkpt lat="43.16738" lon="6.34505">
        <ele>433.9</ele>
        <time>2017-10-08T11:10:33Z</time>
      </trkpt>
      <trkpt lat="43.16741" lon="6.34492">
        <ele>434.4</ele>
        <time>2017-10-08T11:10:42Z</time>
      </trkpt>
      <trkpt lat="43.16742" lon="6.3448">
        <ele>434.7</ele>
        <time>2017-10-08T11:10:51Z</time>
      </trkpt>
      <trkpt lat="43.16743" lon="6.34466">
        <ele>434.6</ele>
        <time>2017-10-08T11:11:00Z</time>
      </trkpt>
      <trkpt lat="43.16743" lon="6.34453">
        <ele>434.2</ele>
        <time>2017-10-08T11:11:10Z</time>
      </trkpt>
      <trkpt lat="43.16744" lon="6.34441">
        <ele>434.1</ele>
        <time>2017-10-08T11:11:18Z</time>
      </trkpt>
      <trkpt lat="43.16748" lon="6.34428">
        <ele>433.6</ele>
        <time>2017-10-08T11:11:27Z</time>
      </trkpt>
      <trkpt lat="43.16753" lon="6.34417">
        <ele>433</ele>
        <time>2017-10-08T11:11:36Z</time>
      </trkpt>
      <trkpt lat="43.16759" lon="6.34406">
        <ele>432.3</ele>
        <time>2017-10-08T11:11:45Z</time>
      </trkpt>
      <trkpt lat="43.16763" lon="6.34394">
        <ele>431.4</ele>
        <time>2017-10-08T11:11:55Z</time>
      </trkpt>
      <trkpt lat="43.16769" lon="6.34384">
        <ele>430.4</ele>
        <time>2017-10-08T11:12:05Z</time>
      </trkpt>
      <trkpt lat="43.16778" lon="6.34379">
        <ele>428.9</ele>
        <time>2017-10-08T11:12:16Z</time>
      </trkpt>
      <trkpt lat="43.16787" lon="6.34376">
        <ele>426.9</ele>
        <time>2017-10-08T11:12:27Z</time>
      </trkpt>
      <trkpt lat="43.16796" lon="6.34374">
        <ele>425.3</ele>
        <time>2017-10-08T11:12:37Z</time>
      </trkpt>
      <trkpt lat="43.16806" lon="6.34373">
        <ele>423.3</ele>
        <time>2017-10-08T11:12:47Z</time>
      </trkpt>
      <trkpt lat="43.16815" lon="6.34375">
        <ele>421.7</ele>
        <time>2017-10-08T11:12:56Z</time>
      </trkpt>
      <trkpt lat="43.16824" lon="6.34369">
        <ele>419.8</ele>
        <time>2017-10-08T11:13:08Z</time>
      </trkpt>
      <trkpt lat="43.16826" lon="6.34357">
        <ele>418.2</ele>
        <time>2017-10-08T11:13:20Z</time>
      </trkpt>
      <trkpt lat="43.16825" lon="6.34345">
        <ele>416.5</ele>
        <time>2017-10-08T11:13:32Z</time>
      </trkpt>
      <trkpt lat="43.16822" lon="6.34332">
        <ele>414.8</ele>
        <time>2017-10-08T11:13:42Z</time>
      </trkpt>
      <trkpt lat="43.16818" lon="6.3432">
        <ele>413.3</ele>
        <time>2017-10-08T11:13:52Z</time>
      </trkpt>
      <trkpt lat="43.16813" lon="6.34309">
        <ele>412.1</ele>
        <time>2017-10-08T11:14:02Z</time>
      </trkpt>
      <trkpt lat="43.16807" lon="6.34299">
        <ele>410.9</ele>
        <time>2017-10-08T11:14:11Z</time>
      </trkpt>
      <trkpt lat="43.16799" lon="6.34292">
        <ele>409.5</ele>
        <time>2017-10-08T11:14:20Z</time>
      </trkpt>
      <trkpt lat="43.16791" lon="6.34285">
        <ele>407.7</ele>
        <time>2017-10-08T11:14:34Z</time>
      </trkpt>
      <trkpt lat="43.16784" lon="6.34277">
        <ele>405.9</ele>
        <time>2017-10-08T11:14:48Z</time>
      </trkpt>
      <trkpt lat="43.16786" lon="6.34265">
        <ele>403.1</ele>
        <time>2017-10-08T11:15:08Z</time>
      </trkpt>
      <trkpt lat="43.16795" lon="6.34259">
        <ele>401.6</ele>
        <time>2017-10-08T11:15:24Z</time>
      </trkpt>
      <trkpt lat="43.16801" lon="6.3425">
        <ele>401.1</ele>
        <time>2017-10-08T11:15:34Z</time>
      </trkpt>
      <trkpt lat="43.16806" lon="6.34239">
        <ele>399.8</ele>
        <time>2017-10-08T11:15:43Z</time>
      </trkpt>
      <trkpt lat="43.1681" lon="6.34228">
        <ele>398.7</ele>
        <time>2017-10-08T11:15:54Z</time>
      </trkpt>
      <trkpt lat="43.16807" lon="6.34215">
        <ele>397.4</ele>
        <time>2017-10-08T11:16:03Z</time>
      </trkpt>
      <trkpt lat="43.16808" lon="6.34201">
        <ele>396.3</ele>
        <time>2017-10-08T11:16:14Z</time>
      </trkpt>
      <trkpt lat="43.16808" lon="6.34188">
        <ele>395.7</ele>
        <time>2017-10-08T11:16:22Z</time>
      </trkpt>
      <trkpt lat="43.16804" lon="6.34176">
        <ele>395</ele>
        <time>2017-10-08T11:16:30Z</time>
      </trkpt>
      <trkpt lat="43.16798" lon="6.34166">
        <ele>394.6</ele>
        <time>2017-10-08T11:16:38Z</time>
      </trkpt>
      <trkpt lat="43.16792" lon="6.34157">
        <ele>394.4</ele>
        <time>2017-10-08T11:16:46Z</time>
      </trkpt>
      <trkpt lat="43.16783" lon="6.34149">
        <ele>394.2</ele>
        <time>2017-10-08T11:16:54Z</time>
      </trkpt>
      <trkpt lat="43.16776" lon="6.3414">
        <ele>394</ele>
        <time>2017-10-08T11:17:02Z</time>
      </trkpt>
      <trkpt lat="43.16769" lon="6.34132">
        <ele>393.9</ele>
        <time>2017-10-08T11:17:11Z</time>
      </trkpt>
      <trkpt lat="43.16761" lon="6.34126">
        <ele>393.3</ele>
        <time>2017-10-08T11:17:20Z</time>
      </trkpt>
      <trkpt lat="43.16752" lon="6.34121">
        <ele>392.4</ele>
        <time>2017-10-08T11:17:28Z</time>
      </trkpt>
      <trkpt lat="43.16745" lon="6.34113">
        <ele>391.4</ele>
        <time>2017-10-08T11:17:36Z</time>
      </trkpt>
      <trkpt lat="43.16739" lon="6.34102">
        <ele>390</ele>
        <time>2017-10-08T11:17:47Z</time>
      </trkpt>
      <trkpt lat="43.16736" lon="6.3409">
        <ele>388.8</ele>
        <time>2017-10-08T11:17:58Z</time>
      </trkpt>
      <trkpt lat="43.16737" lon="6.34077">
        <ele>387.8</ele>
        <time>2017-10-08T11:18:09Z</time>
      </trkpt>
      <trkpt lat="43.16737" lon="6.34064">
        <ele>387.4</ele>
        <time>2017-10-08T11:18:18Z</time>
      </trkpt>
      <trkpt lat="43.1673" lon="6.34052">
        <ele>387.1</ele>
        <time>2017-10-08T11:18:26Z</time>
      </trkpt>
      <trkpt lat="43.16721" lon="6.34047">
        <ele>386.7</ele>
        <time>2017-10-08T11:18:32Z</time>
      </trkpt>
      <trkpt lat="43.16712" lon="6.34042">
        <ele>386.4</ele>
        <time>2017-10-08T11:18:38Z</time>
      </trkpt>
      <trkpt lat="43.16703" lon="6.3404">
        <ele>385.9</ele>
        <time>2017-10-08T11:18:46Z</time>
      </trkpt>
      <trkpt lat="43.16695" lon="6.34033">
        <ele>384.9</ele>
        <time>2017-10-08T11:18:55Z</time>
      </trkpt>
      <trkpt lat="43.16689" lon="6.34024">
        <ele>384.2</ele>
        <time>2017-10-08T11:19:03Z</time>
      </trkpt>
      <trkpt lat="43.16684" lon="6.34013">
        <ele>383.7</ele>
        <time>2017-10-08T11:19:12Z</time>
      </trkpt>
      <trkpt lat="43.16678" lon="6.34002">
        <ele>383.2</ele>
        <time>2017-10-08T11:19:21Z</time>
      </trkpt>
      <trkpt lat="43.16675" lon="6.3399">
        <ele>383</ele>
        <time>2017-10-08T11:19:30Z</time>
      </trkpt>
      <trkpt lat="43.16671" lon="6.33978">
        <ele>383</ele>
        <time>2017-10-08T11:19:42Z</time>
      </trkpt>
      <trkpt lat="43.16668" lon="6.33965">
        <ele>382.3</ele>
        <time>2017-10-08T11:19:51Z</time>
      </trkpt>
      <trkpt lat="43.16661" lon="6.33956">
        <ele>381.2</ele>
        <time>2017-10-08T11:20:00Z</time>
      </trkpt>
      <trkpt lat="43.16654" lon="6.33948">
        <ele>379.8</ele>
        <time>2017-10-08T11:20:09Z</time>
      </trkpt>
      <trkpt lat="43.16646" lon="6.3394">
        <ele>378.4</ele>
        <time>2017-10-08T11:20:18Z</time>
      </trkpt>
      <trkpt lat="43.16638" lon="6.33933">
        <ele>377</ele>
        <time>2017-10-08T11:20:28Z</time>
      </trkpt>
      <trkpt lat="43.16634" lon="6.33922">
        <ele>375.5</ele>
        <time>2017-10-08T11:20:38Z</time>
      </trkpt>
      <trkpt lat="43.1663" lon="6.3391">
        <ele>374.2</ele>
        <time>2017-10-08T11:20:47Z</time>
      </trkpt>
      <trkpt lat="43.16628" lon="6.33897">
        <ele>373.4</ele>
        <time>2017-10-08T11:20:56Z</time>
      </trkpt>
      <trkpt lat="43.16633" lon="6.33886">
        <ele>372.4</ele>
        <time>2017-10-08T11:21:07Z</time>
      </trkpt>
      <trkpt lat="43.1664" lon="6.33878">
        <ele>371.7</ele>
        <time>2017-10-08T11:21:17Z</time>
      </trkpt>
      <trkpt lat="43.16646" lon="6.3387">
        <ele>370.5</ele>
        <time>2017-10-08T11:21:28Z</time>
      </trkpt>
      <trkpt lat="43.16653" lon="6.3386">
        <ele>369.2</ele>
        <time>2017-10-08T11:21:39Z</time>
      </trkpt>
      <trkpt lat="43.16661" lon="6.33853">
        <ele>368.2</ele>
        <time>2017-10-08T11:21:48Z</time>
      </trkpt>
      <trkpt lat="43.1667" lon="6.33849">
        <ele>366.5</ele>
        <time>2017-10-08T11:22:01Z</time>
      </trkpt>
      <trkpt lat="43.1668" lon="6.3385">
        <ele>364.7</ele>
        <time>2017-10-08T11:22:12Z</time>
      </trkpt>
      <trkpt lat="43.16689" lon="6.33852">
        <ele>363.7</ele>
        <time>2017-10-08T11:22:20Z</time>
      </trkpt>
      <trkpt lat="43.16698" lon="6.33849">
        <ele>362.6</ele>
        <time>2017-10-08T11:22:29Z</time>
      </trkpt>
      <trkpt lat="43.16699" lon="6.33836">
        <ele>361.1</ele>
        <time>2017-10-08T11:22:39Z</time>
      </trkpt>
      <trkpt lat="43.16698" lon="6.33823">
        <ele>359</ele>
        <time>2017-10-08T11:22:50Z</time>
      </trkpt>
      <trkpt lat="43.16693" lon="6.33812">
        <ele>357.1</ele>
        <time>2017-10-08T11:23:00Z</time>
      </trkpt>
      <trkpt lat="43.16687" lon="6.33802">
        <ele>355.6</ele>
        <time>2017-10-08T11:23:08Z</time>
      </trkpt>
      <trkpt lat="43.16684" lon="6.33791">
        <ele>354</ele>
        <time>2017-10-08T11:23:18Z</time>
      </trkpt>
      <trkpt lat="43.16679" lon="6.3378">
        <ele>352.9</ele>
        <time>2017-10-08T11:23:27Z</time>
      </trkpt>
      <trkpt lat="43.16674" lon="6.33768">
        <ele>351.4</ele>
        <time>2017-10-08T11:23:37Z</time>
      </trkpt>
      <trkpt lat="43.16668" lon="6.33759">
        <ele>350.2</ele>
        <time>2017-10-08T11:23:46Z</time>
      </trkpt>
      <trkpt lat="43.16662" lon="6.33749">
        <ele>348.7</ele>
        <time>2017-10-08T11:23:56Z</time>
      </trkpt>
      <trkpt lat="43.16657" lon="6.33737">
        <ele>346.9</ele>
        <time>2017-10-08T11:24:06Z</time>
      </trkpt>
      <trkpt lat="43.16651" lon="6.33726">
        <ele>345</ele>
        <time>2017-10-08T11:24:17Z</time>
      </trkpt>
      <trkpt lat="43.16644" lon="6.33718">
        <ele>343.5</ele>
        <time>2017-10-08T11:24:27Z</time>
      </trkpt>
      <trkpt lat="43.16634" lon="6.33712">
        <ele>341.7</ele>
        <time>2017-10-08T11:24:37Z</time>
      </trkpt>
      <trkpt lat="43.16626" lon="6.33705">
        <ele>340.2</ele>
        <time>2017-10-08T11:24:45Z</time>
      </trkpt>
      <trkpt lat="43.16617" lon="6.33701">
        <ele>338.4</ele>
        <time>2017-10-08T11:24:54Z</time>
      </trkpt>
      <trkpt lat="43.16608" lon="6.33699">
        <ele>337.2</ele>
        <time>2017-10-08T11:25:01Z</time>
      </trkpt>
      <trkpt lat="43.16599" lon="6.33699">
        <ele>335.9</ele>
        <time>2017-10-08T11:25:09Z</time>
      </trkpt>
      <trkpt lat="43.16589" lon="6.33702">
        <ele>334.7</ele>
        <time>2017-10-08T11:25:18Z</time>
      </trkpt>
      <trkpt lat="43.16579" lon="6.33704">
        <ele>334</ele>
        <time>2017-10-08T11:25:27Z</time>
      </trkpt>
      <trkpt lat="43.16569" lon="6.33707">
        <ele>333.3</ele>
        <time>2017-10-08T11:25:36Z</time>
      </trkpt>
      <trkpt lat="43.1656" lon="6.33709">
        <ele>332.5</ele>
        <time>2017-10-08T11:25:44Z</time>
      </trkpt>
      <trkpt lat="43.16552" lon="6.33714">
        <ele>331.4</ele>
        <time>2017-10-08T11:25:53Z</time>
      </trkpt>
      <trkpt lat="43.16543" lon="6.33719">
        <ele>330.1</ele>
        <time>2017-10-08T11:26:01Z</time>
      </trkpt>
      <trkpt lat="43.16533" lon="6.33724">
        <ele>328.9</ele>
        <time>2017-10-08T11:26:09Z</time>
      </trkpt>
      <trkpt lat="43.16524" lon="6.33723">
        <ele>327.1</ele>
        <time>2017-10-08T11:26:20Z</time>
      </trkpt>
      <trkpt lat="43.16519" lon="6.33713">
        <ele>325</ele>
        <time>2017-10-08T11:26:33Z</time>
      </trkpt>
      <trkpt lat="43.16511" lon="6.33705">
        <ele>322.7</ele>
        <time>2017-10-08T11:26:47Z</time>
      </trkpt>
      <trkpt lat="43.16506" lon="6.33694">
        <ele>320.9</ele>
        <time>2017-10-08T11:26:58Z</time>
      </trkpt>
      <trkpt lat="43.16499" lon="6.33685">
        <ele>319.5</ele>
        <time>2017-10-08T11:27:08Z</time>
      </trkpt>
      <trkpt lat="43.16495" lon="6.33673">
        <ele>318.5</ele>
        <time>2017-10-08T11:27:17Z</time>
      </trkpt>
      <trkpt lat="43.16494" lon="6.33659">
        <ele>317.2</ele>
        <time>2017-10-08T11:27:27Z</time>
      </trkpt>
      <trkpt lat="43.16496" lon="6.33646">
        <ele>316.4</ele>
        <time>2017-10-08T11:27:36Z</time>
      </trkpt>
      <trkpt lat="43.165" lon="6.33635">
        <ele>315.9</ele>
        <time>2017-10-08T11:27:46Z</time>
      </trkpt>
      <trkpt lat="43.16508" lon="6.33627">
        <ele>315.2</ele>
        <time>2017-10-08T11:27:56Z</time>
      </trkpt>
      <trkpt lat="43.16514" lon="6.33617">
        <ele>314.6</ele>
        <time>2017-10-08T11:28:05Z</time>
      </trkpt>
      <trkpt lat="43.1652" lon="6.33607">
        <ele>314</ele>
        <time>2017-10-08T11:28:14Z</time>
      </trkpt>
      <trkpt lat="43.16526" lon="6.33598">
        <ele>312.9</ele>
        <time>2017-10-08T11:28:23Z</time>
      </trkpt>
      <trkpt lat="43.16529" lon="6.33586">
        <ele>310.9</ele>
        <time>2017-10-08T11:28:35Z</time>
      </trkpt>
      <trkpt lat="43.16534" lon="6.33575">
        <ele>309.1</ele>
        <time>2017-10-08T11:28:47Z</time>
      </trkpt>
      <trkpt lat="43.1654" lon="6.33564">
        <ele>307.7</ele>
        <time>2017-10-08T11:28:57Z</time>
      </trkpt>
      <trkpt lat="43.16543" lon="6.33552">
        <ele>306.1</ele>
        <time>2017-10-08T11:29:07Z</time>
      </trkpt>
      <trkpt lat="43.16546" lon="6.3354">
        <ele>304.3</ele>
        <time>2017-10-08T11:29:17Z</time>
      </trkpt>
      <trkpt lat="43.16548" lon="6.33527">
        <ele>302.6</ele>
        <time>2017-10-08T11:29:27Z</time>
      </trkpt>
      <trkpt lat="43.1655" lon="6.33514">
        <ele>300.8</ele>
        <time>2017-10-08T11:29:37Z</time>
      </trkpt>
      <trkpt lat="43.16554" lon="6.33502">
        <ele>298.9</ele>
        <time>2017-10-08T11:29:48Z</time>
      </trkpt>
      <trkpt lat="43.16556" lon="6.3349">
        <ele>297</ele>
        <time>2017-10-08T11:29:58Z</time>
      </trkpt>
      <trkpt lat="43.16559" lon="6.33477">
        <ele>294.7</ele>
        <time>2017-10-08T11:30:09Z</time>
      </trkpt>
      <trkpt lat="43.16561" lon="6.33465">
        <ele>292.6</ele>
        <time>2017-10-08T11:30:19Z</time>
      </trkpt>
      <trkpt lat="43.16562" lon="6.33452">
        <ele>290.3</ele>
        <time>2017-10-08T11:30:31Z</time>
      </trkpt>
      <trkpt lat="43.16561" lon="6.33439">
        <ele>288.3</ele>
        <time>2017-10-08T11:30:43Z</time>
      </trkpt>
      <trkpt lat="43.16561" lon="6.33426">
        <ele>286.5</ele>
        <time>2017-10-08T11:30:53Z</time>
      </trkpt>
      <trkpt lat="43.1656" lon="6.33414">
        <ele>284.8</ele>
        <time>2017-10-08T11:31:02Z</time>
      </trkpt>
      <trkpt lat="43.16558" lon="6.33402">
        <ele>283.8</ele>
        <time>2017-10-08T11:31:10Z</time>
      </trkpt>
      <trkpt lat="43.16552" lon="6.33391">
        <ele>282.5</ele>
        <time>2017-10-08T11:31:19Z</time>
      </trkpt>
      <trkpt lat="43.16544" lon="6.33383">
        <ele>281.3</ele>
        <time>2017-10-08T11:31:28Z</time>
      </trkpt>
      <trkpt lat="43.16536" lon="6.33378">
        <ele>280.2</ele>
        <time>2017-10-08T11:31:37Z</time>
      </trkpt>
      <trkpt lat="43.16526" lon="6.33376">
        <ele>278.5</ele>
        <time>2017-10-08T11:31:49Z</time>
      </trkpt>
      <trkpt lat="43.16517" lon="6.33375">
        <ele>276.9</ele>
        <time>2017-10-08T11:31:59Z</time>
      </trkpt>
      <trkpt lat="43.16507" lon="6.33375">
        <ele>275</ele>
        <time>2017-10-08T11:32:09Z</time>
      </trkpt>
      <trkpt lat="43.16498" lon="6.33379">
        <ele>273.6</ele>
        <time>2017-10-08T11:32:18Z</time>
      </trkpt>
      <trkpt lat="43.16489" lon="6.3338">
        <ele>272.7</ele>
        <time>2017-10-08T11:32:27Z</time>
      </trkpt>
      <trkpt lat="43.1648" lon="6.33384">
        <ele>271.6</ele>
        <time>2017-10-08T11:32:36Z</time>
      </trkpt>
      <trkpt lat="43.1647" lon="6.33385">
        <ele>270.5</ele>
        <time>2017-10-08T11:32:45Z</time>
      </trkpt>
      <trkpt lat="43.1646" lon="6.33387">
        <ele>269.3</ele>
        <time>2017-10-08T11:32:54Z</time>
      </trkpt>
      <trkpt lat="43.16451" lon="6.3339">
        <ele>267.7</ele>
        <time>2017-10-08T11:33:04Z</time>
      </trkpt>
      <trkpt lat="43.16442" lon="6.33396">
        <ele>266.6</ele>
        <time>2017-10-08T11:33:14Z</time>
      </trkpt>
      <trkpt lat="43.16433" lon="6.334">
        <ele>265.7</ele>
        <time>2017-10-08T11:33:23Z</time>
      </trkpt>
      <trkpt lat="43.16424" lon="6.33404">
        <ele>265</ele>
        <time>2017-10-08T11:33:32Z</time>
      </trkpt>
      <trkpt lat="43.16415" lon="6.3341">
        <ele>264.5</ele>
        <time>2017-10-08T11:33:41Z</time>
      </trkpt>
      <trkpt lat="43.16406" lon="6.33415">
        <ele>263.9</ele>
        <time>2017-10-08T11:33:50Z</time>
      </trkpt>
      <trkpt lat="43.16398" lon="6.33423">
        <ele>263.1</ele>
        <time>2017-10-08T11:33:59Z</time>
      </trkpt>
      <trkpt lat="43.16389" lon="6.3343">
        <ele>262.3</ele>
        <time>2017-10-08T11:34:08Z</time>
      </trkpt>
      <trkpt lat="43.16382" lon="6.33438">
        <ele>261.6</ele>
        <time>2017-10-08T11:34:16Z</time>
      </trkpt>
      <trkpt lat="43.16373" lon="6.33444">
        <ele>260.7</ele>
        <time>2017-10-08T11:34:25Z</time>
      </trkpt>
      <trkpt lat="43.16364" lon="6.33447">
        <ele>260.2</ele>
        <time>2017-10-08T11:34:33Z</time>
      </trkpt>
      <trkpt lat="43.16355" lon="6.33451">
        <ele>259.8</ele>
        <time>2017-10-08T11:34:42Z</time>
      </trkpt>
      <trkpt lat="43.16346" lon="6.33454">
        <ele>258.8</ele>
        <time>2017-10-08T11:34:53Z</time>
      </trkpt>
      <trkpt lat="43.16337" lon="6.33457">
        <ele>256.1</ele>
        <time>2017-10-08T11:36:46Z</time>
      </trkpt>
      <trkpt lat="43.16332" lon="6.33467">
        <ele>255.5</ele>
        <time>2017-10-08T11:37:32Z</time>
      </trkpt>
      <trkpt lat="43.16324" lon="6.33474">
        <ele>255.7</ele>
        <time>2017-10-08T11:38:15Z</time>
      </trkpt>
      <trkpt lat="43.1632" lon="6.33485">
        <ele>255.1</ele>
        <time>2017-10-08T11:38:27Z</time>
      </trkpt>
      <trkpt lat="43.1632" lon="6.33498">
        <ele>255.1</ele>
        <time>2017-10-08T11:40:46Z</time>
      </trkpt>
      <trkpt lat="43.16317" lon="6.33511">
        <ele>255.1</ele>
        <time>2017-10-08T11:40:58Z</time>
      </trkpt>
      <trkpt lat="43.16312" lon="6.33522">
        <ele>254.2</ele>
        <time>2017-10-08T11:41:10Z</time>
      </trkpt>
      <trkpt lat="43.16309" lon="6.33534">
        <ele>252.9</ele>
        <time>2017-10-08T11:41:21Z</time>
      </trkpt>
      <trkpt lat="43.16304" lon="6.33545">
        <ele>251.3</ele>
        <time>2017-10-08T11:41:33Z</time>
      </trkpt>
      <trkpt lat="43.16294" lon="6.33547">
        <ele>249.9</ele>
        <time>2017-10-08T11:41:45Z</time>
      </trkpt>
      <trkpt lat="43.16285" lon="6.33547">
        <ele>249.3</ele>
        <time>2017-10-08T11:41:54Z</time>
      </trkpt>
      <trkpt lat="43.16275" lon="6.33546">
        <ele>248.3</ele>
        <time>2017-10-08T11:42:02Z</time>
      </trkpt>
      <trkpt lat="43.16267" lon="6.33553">
        <ele>247.5</ele>
        <time>2017-10-08T11:42:11Z</time>
      </trkpt>
      <trkpt lat="43.16261" lon="6.33563">
        <ele>247</ele>
        <time>2017-10-08T11:42:19Z</time>
      </trkpt>
      <trkpt lat="43.16257" lon="6.33576">
        <ele>246.3</ele>
        <time>2017-10-08T11:42:28Z</time>
      </trkpt>
      <trkpt lat="43.16256" lon="6.33589">
        <ele>245.8</ele>
        <time>2017-10-08T11:42:36Z</time>
      </trkpt>
      <trkpt lat="43.16255" lon="6.33601">
        <ele>245.1</ele>
        <time>2017-10-08T11:42:44Z</time>
      </trkpt>
      <trkpt lat="43.16254" lon="6.33613">
        <ele>244.3</ele>
        <time>2017-10-08T11:42:54Z</time>
      </trkpt>
      <trkpt lat="43.16253" lon="6.33626">
        <ele>243.7</ele>
        <time>2017-10-08T11:43:02Z</time>
      </trkpt>
      <trkpt lat="43.16255" lon="6.33639">
        <ele>242.8</ele>
        <time>2017-10-08T11:43:14Z</time>
      </trkpt>
      <trkpt lat="43.16256" lon="6.33652">
        <ele>241.1</ele>
        <time>2017-10-08T11:43:25Z</time>
      </trkpt>
      <trkpt lat="43.16256" lon="6.33665">
        <ele>239.5</ele>
        <time>2017-10-08T11:43:36Z</time>
      </trkpt>
      <trkpt lat="43.16252" lon="6.33654">
        <ele>237.6</ele>
        <time>2017-10-08T11:43:59Z</time>
      </trkpt>
      <trkpt lat="43.1625" lon="6.33641">
        <ele>236.8</ele>
        <time>2017-10-08T11:44:10Z</time>
      </trkpt>
      <trkpt lat="43.16244" lon="6.33632">
        <ele>237</ele>
        <time>2017-10-08T11:46:26Z</time>
      </trkpt>
      <trkpt lat="43.16241" lon="6.3362">
        <ele>236.9</ele>
        <time>2017-10-08T11:46:36Z</time>
      </trkpt>
      <trkpt lat="43.1624" lon="6.33608">
        <ele>236.9</ele>
        <time>2017-10-08T11:46:46Z</time>
      </trkpt>
      <trkpt lat="43.16237" lon="6.33596">
        <ele>236.7</ele>
        <time>2017-10-08T11:46:56Z</time>
      </trkpt>
      <trkpt lat="43.16234" lon="6.33583">
        <ele>236.2</ele>
        <time>2017-10-08T11:47:06Z</time>
      </trkpt>
      <trkpt lat="43.16227" lon="6.33572">
        <ele>236</ele>
        <time>2017-10-08T11:47:15Z</time>
      </trkpt>
      <trkpt lat="43.16222" lon="6.33561">
        <ele>236.1</ele>
        <time>2017-10-08T11:47:24Z</time>
      </trkpt>
      <trkpt lat="43.16218" lon="6.3355">
        <ele>236.1</ele>
        <time>2017-10-08T11:47:33Z</time>
      </trkpt>
      <trkpt lat="43.16217" lon="6.33536">
        <ele>236.1</ele>
        <time>2017-10-08T11:47:43Z</time>
      </trkpt>
      <trkpt lat="43.16212" lon="6.33527">
        <ele>236.3</ele>
        <time>2017-10-08T11:48:29Z</time>
      </trkpt>
      <trkpt lat="43.16204" lon="6.33518">
        <ele>234.6</ele>
        <time>2017-10-08T11:49:57Z</time>
      </trkpt>
      <trkpt lat="43.16198" lon="6.33509">
        <ele>231.9</ele>
        <time>2017-10-08T11:50:14Z</time>
      </trkpt>
      <trkpt lat="43.16193" lon="6.33498">
        <ele>229</ele>
        <time>2017-10-08T11:50:30Z</time>
      </trkpt>
      <trkpt lat="43.16185" lon="6.33492">
        <ele>226.1</ele>
        <time>2017-10-08T11:50:45Z</time>
      </trkpt>
      <trkpt lat="43.16177" lon="6.33484">
        <ele>222.9</ele>
        <time>2017-10-08T11:51:02Z</time>
      </trkpt>
      <trkpt lat="43.1617" lon="6.33477">
        <ele>220.2</ele>
        <time>2017-10-08T11:51:14Z</time>
      </trkpt>
      <trkpt lat="43.16165" lon="6.33465">
        <ele>217.8</ele>
        <time>2017-10-08T11:51:25Z</time>
      </trkpt>
      <trkpt lat="43.16161" lon="6.33454">
        <ele>215.8</ele>
        <time>2017-10-08T11:51:34Z</time>
      </trkpt>
      <trkpt lat="43.16152" lon="6.3345">
        <ele>213.6</ele>
        <time>2017-10-08T11:51:44Z</time>
      </trkpt>
      <trkpt lat="43.16148" lon="6.33462">
        <ele>211.8</ele>
        <time>2017-10-08T11:51:54Z</time>
      </trkpt>
      <trkpt lat="43.16145" lon="6.33475">
        <ele>211</ele>
        <time>2017-10-08T11:52:03Z</time>
      </trkpt>
      <trkpt lat="43.16142" lon="6.33487">
        <ele>210</ele>
        <time>2017-10-08T11:52:14Z</time>
      </trkpt>
      <trkpt lat="43.16139" lon="6.33499">
        <ele>209</ele>
        <time>2017-10-08T11:52:25Z</time>
      </trkpt>
      <trkpt lat="43.16139" lon="6.33511">
        <ele>208.2</ele>
        <time>2017-10-08T11:52:52Z</time>
      </trkpt>
      <trkpt lat="43.1614" lon="6.33524">
        <ele>208.4</ele>
        <time>2017-10-08T11:53:27Z</time>
      </trkpt>
      <trkpt lat="43.16143" lon="6.33536">
        <ele>208.7</ele>
        <time>2017-10-08T11:53:53Z</time>
      </trkpt>
      <trkpt lat="43.16146" lon="6.33547">
        <ele>209.3</ele>
        <time>2017-10-08T11:54:11Z</time>
      </trkpt>
      <trkpt lat="43.16148" lon="6.3356">
        <ele>209.4</ele>
        <time>2017-10-08T11:54:33Z</time>
      </trkpt>
      <trkpt lat="43.16155" lon="6.33569">
        <ele>210.3</ele>
        <time>2017-10-08T11:54:51Z</time>
      </trkpt>
      <trkpt lat="43.1616" lon="6.3358">
        <ele>211.1</ele>
        <time>2017-10-08T11:55:05Z</time>
      </trkpt>
      <trkpt lat="43.16165" lon="6.33591">
        <ele>212.1</ele>
        <time>2017-10-08T11:55:21Z</time>
      </trkpt>
      <trkpt lat="43.16171" lon="6.33601">
        <ele>213.3</ele>
        <time>2017-10-08T11:55:39Z</time>
      </trkpt>
      <trkpt lat="43.16176" lon="6.33612">
        <ele>214.1</ele>
        <time>2017-10-08T11:55:52Z</time>
      </trkpt>
      <trkpt lat="43.16182" lon="6.3362">
        <ele>214.4</ele>
        <time>2017-10-08T11:56:12Z</time>
      </trkpt>
      <trkpt lat="43.16186" lon="6.33632">
        <ele>214</ele>
        <time>2017-10-08T11:56:28Z</time>
      </trkpt>
      <trkpt lat="43.16188" lon="6.33644">
        <ele>213.4</ele>
        <time>2017-10-08T11:56:43Z</time>
      </trkpt>
      <trkpt lat="43.1619" lon="6.33656">
        <ele>212.9</ele>
        <time>2017-10-08T11:57:00Z</time>
      </trkpt>
      <trkpt lat="43.16193" lon="6.33668">
        <ele>212.7</ele>
        <time>2017-10-08T11:57:25Z</time>
      </trkpt>
      <trkpt lat="43.16195" lon="6.33681">
        <ele>212.7</ele>
        <time>2017-10-08T11:57:46Z</time>
      </trkpt>
      <trkpt lat="43.162" lon="6.33691">
        <ele>215.3</ele>
        <time>2017-10-08T11:58:15Z</time>
      </trkpt>
      <trkpt lat="43.16202" lon="6.33703">
        <ele>216.9</ele>
        <time>2017-10-08T11:58:38Z</time>
      </trkpt>
      <trkpt lat="43.16204" lon="6.33716">
        <ele>216.8</ele>
        <time>2017-10-08T11:58:51Z</time>
      </trkpt>
      <trkpt lat="43.162" lon="6.33727">
        <ele>214.2</ele>
        <time>2017-10-08T11:59:19Z</time>
      </trkpt>
      <trkpt lat="43.16199" lon="6.3374">
        <ele>212.6</ele>
        <time>2017-10-08T11:59:34Z</time>
      </trkpt>
      <trkpt lat="43.16203" lon="6.33752">
        <ele>211.9</ele>
        <time>2017-10-08T11:59:44Z</time>
      </trkpt>
      <trkpt lat="43.16208" lon="6.33762">
        <ele>210.2</ele>
        <time>2017-10-08T12:00:19Z</time>
      </trkpt>
      <trkpt lat="43.16214" lon="6.33773">
        <ele>209.9</ele>
        <time>2017-10-08T12:00:30Z</time>
      </trkpt>
      <trkpt lat="43.1622" lon="6.33783">
        <ele>209.4</ele>
        <time>2017-10-08T12:00:39Z</time>
      </trkpt>
      <trkpt lat="43.16218" lon="6.33796">
        <ele>209.4</ele>
        <time>2017-10-08T12:00:53Z</time>
      </trkpt>
      <trkpt lat="43.16214" lon="6.33807">
        <ele>209.6</ele>
        <time>2017-10-08T12:01:04Z</time>
      </trkpt>
      <trkpt lat="43.16215" lon="6.33821">
        <ele>210.2</ele>
        <time>2017-10-08T12:01:14Z</time>
      </trkpt>
      <trkpt lat="43.1621" lon="6.3383">
        <ele>210.8</ele>
        <time>2017-10-08T12:01:24Z</time>
      </trkpt>
      <trkpt lat="43.16204" lon="6.3384">
        <ele>211.2</ele>
        <time>2017-10-08T12:01:35Z</time>
      </trkpt>
      <trkpt lat="43.162" lon="6.33852">
        <ele>211.4</ele>
        <time>2017-10-08T12:01:45Z</time>
      </trkpt>
      <trkpt lat="43.16198" lon="6.33864">
        <ele>211.5</ele>
        <time>2017-10-08T12:01:55Z</time>
      </trkpt>
      <trkpt lat="43.16197" lon="6.33877">
        <ele>210.9</ele>
        <time>2017-10-08T12:02:05Z</time>
      </trkpt>
      <trkpt lat="43.16196" lon="6.3389">
        <ele>209.6</ele>
        <time>2017-10-08T12:02:18Z</time>
      </trkpt>
      <trkpt lat="43.16197" lon="6.33902">
        <ele>208.7</ele>
        <time>2017-10-08T12:02:29Z</time>
      </trkpt>
      <trkpt lat="43.16199" lon="6.33915">
        <ele>206.9</ele>
        <time>2017-10-08T12:02:51Z</time>
      </trkpt>
      <trkpt lat="43.162" lon="6.33927">
        <ele>204.7</ele>
        <time>2017-10-08T12:03:09Z</time>
      </trkpt>
      <trkpt lat="43.16193" lon="6.33935">
        <ele>201.9</ele>
        <time>2017-10-08T12:03:30Z</time>
      </trkpt>
      <trkpt lat="43.16189" lon="6.33948">
        <ele>199.6</ele>
        <time>2017-10-08T12:03:45Z</time>
      </trkpt>
      <trkpt lat="43.16187" lon="6.3396">
        <ele>197.9</ele>
        <time>2017-10-08T12:03:58Z</time>
      </trkpt>
      <trkpt lat="43.16186" lon="6.33973">
        <ele>196.8</ele>
        <time>2017-10-08T12:04:08Z</time>
      </trkpt>
      <trkpt lat="43.16187" lon="6.33985">
        <ele>195.8</ele>
        <time>2017-10-08T12:04:19Z</time>
      </trkpt>
      <trkpt lat="43.16189" lon="6.33998">
        <ele>195</ele>
        <time>2017-10-08T12:04:28Z</time>
      </trkpt>
      <trkpt lat="43.16191" lon="6.34012">
        <ele>194.2</ele>
        <time>2017-10-08T12:04:37Z</time>
      </trkpt>
      <trkpt lat="43.16191" lon="6.34024">
        <ele>192.9</ele>
        <time>2017-10-08T12:04:52Z</time>
      </trkpt>
      <trkpt lat="43.16197" lon="6.34035">
        <ele>191.9</ele>
        <time>2017-10-08T12:05:02Z</time>
      </trkpt>
      <trkpt lat="43.16205" lon="6.34043">
        <ele>191.1</ele>
        <time>2017-10-08T12:05:13Z</time>
      </trkpt>
      <trkpt lat="43.16211" lon="6.34051">
        <ele>189.6</ele>
        <time>2017-10-08T12:05:46Z</time>
      </trkpt>
      <trkpt lat="43.16215" lon="6.3404">
        <ele>189.2</ele>
        <time>2017-10-08T12:07:28Z</time>
      </trkpt>
      <trkpt lat="43.16223" lon="6.34033">
        <ele>189.2</ele>
        <time>2017-10-08T12:07:49Z</time>
      </trkpt>
      <trkpt lat="43.1623" lon="6.3404">
        <ele>189.1</ele>
        <time>2017-10-08T12:08:15Z</time>
      </trkpt>
      <trkpt lat="43.1623" lon="6.34052">
        <ele>190.6</ele>
        <time>2017-10-08T12:08:55Z</time>
      </trkpt>
      <trkpt lat="43.1623" lon="6.34065">
        <ele>193.3</ele>
        <time>2017-10-08T12:09:15Z</time>
      </trkpt>
      <trkpt lat="43.16234" lon="6.34076">
        <ele>194.9</ele>
        <time>2017-10-08T12:09:28Z</time>
      </trkpt>
      <trkpt lat="43.16238" lon="6.34087">
        <ele>196.6</ele>
        <time>2017-10-08T12:09:42Z</time>
      </trkpt>
      <trkpt lat="43.16243" lon="6.34097">
        <ele>197.6</ele>
        <time>2017-10-08T12:09:54Z</time>
      </trkpt>
      <trkpt lat="43.16248" lon="6.3411">
        <ele>198.7</ele>
        <time>2017-10-08T12:10:05Z</time>
      </trkpt>
      <trkpt lat="43.16252" lon="6.34121">
        <ele>199.5</ele>
        <time>2017-10-08T12:10:16Z</time>
      </trkpt>
      <trkpt lat="43.16256" lon="6.34133">
        <ele>200.5</ele>
        <time>2017-10-08T12:10:29Z</time>
      </trkpt>
      <trkpt lat="43.1626" lon="6.34145">
        <ele>200.8</ele>
        <time>2017-10-08T12:10:37Z</time>
      </trkpt>
      <trkpt lat="43.16263" lon="6.34158">
        <ele>201</ele>
        <time>2017-10-08T12:10:47Z</time>
      </trkpt>
      <trkpt lat="43.16262" lon="6.3417">
        <ele>201.1</ele>
        <time>2017-10-08T12:10:57Z</time>
      </trkpt>
      <trkpt lat="43.16264" lon="6.34183">
        <ele>200.8</ele>
        <time>2017-10-08T12:11:09Z</time>
      </trkpt>
      <trkpt lat="43.16266" lon="6.34196">
        <ele>200.2</ele>
        <time>2017-10-08T12:11:19Z</time>
      </trkpt>
      <trkpt lat="43.16273" lon="6.34205">
        <ele>199.8</ele>
        <time>2017-10-08T12:11:29Z</time>
      </trkpt>
      <trkpt lat="43.16274" lon="6.34218">
        <ele>200.9</ele>
        <time>2017-10-08T12:12:02Z</time>
      </trkpt>
      <trkpt lat="43.16275" lon="6.34231">
        <ele>201.7</ele>
        <time>2017-10-08T12:12:14Z</time>
      </trkpt>
      <trkpt lat="43.1627" lon="6.34242">
        <ele>202</ele>
        <time>2017-10-08T12:12:26Z</time>
      </trkpt>
      <trkpt lat="43.16263" lon="6.34234">
        <ele>201.5</ele>
        <time>2017-10-08T12:12:43Z</time>
      </trkpt>
      <trkpt lat="43.16255" lon="6.34228">
        <ele>201.3</ele>
        <time>2017-10-08T12:13:00Z</time>
      </trkpt>
      <trkpt lat="43.16246" lon="6.34222">
        <ele>201.6</ele>
        <time>2017-10-08T12:13:14Z</time>
      </trkpt>
      <trkpt lat="43.16237" lon="6.34217">
        <ele>202</ele>
        <time>2017-10-08T12:13:26Z</time>
      </trkpt>
      <trkpt lat="43.16228" lon="6.34218">
        <ele>202.8</ele>
        <time>2017-10-08T12:13:42Z</time>
      </trkpt>
      <trkpt lat="43.1622" lon="6.34212">
        <ele>204.2</ele>
        <time>2017-10-08T12:14:27Z</time>
      </trkpt>
      <trkpt lat="43.16213" lon="6.34205">
        <ele>204.7</ele>
        <time>2017-10-08T12:14:39Z</time>
      </trkpt>
      <trkpt lat="43.16204" lon="6.34203">
        <ele>205.4</ele>
        <time>2017-10-08T12:14:50Z</time>
      </trkpt>
      <trkpt lat="43.16195" lon="6.34206">
        <ele>206.7</ele>
        <time>2017-10-08T12:15:10Z</time>
      </trkpt>
      <trkpt lat="43.16186" lon="6.34204">
        <ele>209.2</ele>
        <time>2017-10-08T12:15:30Z</time>
      </trkpt>
      <trkpt lat="43.16176" lon="6.34204">
        <ele>212</ele>
        <time>2017-10-08T12:15:47Z</time>
      </trkpt>
      <trkpt lat="43.16167" lon="6.34202">
        <ele>215.2</ele>
        <time>2017-10-08T12:16:18Z</time>
      </trkpt>
      <trkpt lat="43.16158" lon="6.34204">
        <ele>216.3</ele>
        <time>2017-10-08T12:16:34Z</time>
      </trkpt>
      <trkpt lat="43.16149" lon="6.342">
        <ele>217.3</ele>
        <time>2017-10-08T12:16:46Z</time>
      </trkpt>
      <trkpt lat="43.16139" lon="6.34199">
        <ele>218.8</ele>
        <time>2017-10-08T12:17:03Z</time>
      </trkpt>
      <trkpt lat="43.1613" lon="6.34198">
        <ele>220</ele>
        <time>2017-10-08T12:17:16Z</time>
      </trkpt>
      <trkpt lat="43.1612" lon="6.34195">
        <ele>221.2</ele>
        <time>2017-10-08T12:17:33Z</time>
      </trkpt>
      <trkpt lat="43.16111" lon="6.34195">
        <ele>222.9</ele>
        <time>2017-10-08T12:17:49Z</time>
      </trkpt>
      <trkpt lat="43.16103" lon="6.34199">
        <ele>225.7</ele>
        <time>2017-10-08T12:18:51Z</time>
      </trkpt>
      <trkpt lat="43.16094" lon="6.34202">
        <ele>225.7</ele>
        <time>2017-10-08T12:21:21Z</time>
      </trkpt>
      <trkpt lat="43.16084" lon="6.34204">
        <ele>227</ele>
        <time>2017-10-08T12:21:38Z</time>
      </trkpt>
      <trkpt lat="43.16076" lon="6.34207">
        <ele>228.2</ele>
        <time>2017-10-08T12:21:54Z</time>
      </trkpt>
      <trkpt lat="43.16067" lon="6.3421">
        <ele>229.2</ele>
        <time>2017-10-08T12:22:05Z</time>
      </trkpt>
      <trkpt lat="43.16059" lon="6.34218">
        <ele>231.1</ele>
        <time>2017-10-08T12:22:19Z</time>
      </trkpt>
      <trkpt lat="43.16051" lon="6.34224">
        <ele>233.2</ele>
        <time>2017-10-08T12:22:37Z</time>
      </trkpt>
      <trkpt lat="43.16042" lon="6.3423">
        <ele>235.1</ele>
        <time>2017-10-08T12:22:55Z</time>
      </trkpt>
      <trkpt lat="43.16035" lon="6.34236">
        <ele>237.8</ele>
        <time>2017-10-08T12:23:20Z</time>
      </trkpt>
      <trkpt lat="43.16033" lon="6.34248">
        <ele>241</ele>
        <time>2017-10-08T12:24:55Z</time>
      </trkpt>
      <trkpt lat="43.16025" lon="6.34241">
        <ele>240.8</ele>
        <time>2017-10-08T12:25:15Z</time>
      </trkpt>
      <trkpt lat="43.16016" lon="6.34236">
        <ele>240</ele>
        <time>2017-10-08T12:25:26Z</time>
      </trkpt>
      <trkpt lat="43.16007" lon="6.34233">
        <ele>239.5</ele>
        <time>2017-10-08T12:25:35Z</time>
      </trkpt>
      <trkpt lat="43.15998" lon="6.3423">
        <ele>238.7</ele>
        <time>2017-10-08T12:25:52Z</time>
      </trkpt>
      <trkpt lat="43.16006" lon="6.34237">
        <ele>238.9</ele>
        <time>2017-10-08T12:28:54Z</time>
      </trkpt>
      <trkpt lat="43.16016" lon="6.34242">
        <ele>239</ele>
        <time>2017-10-08T12:29:08Z</time>
      </trkpt>
      <trkpt lat="43.16025" lon="6.34244">
        <ele>239.3</ele>
        <time>2017-10-08T12:29:18Z</time>
      </trkpt>
      <trkpt lat="43.16034" lon="6.34247">
        <ele>240.6</ele>
        <time>2017-10-08T12:29:34Z</time>
      </trkpt>
      <trkpt lat="43.16042" lon="6.34252">
        <ele>241.4</ele>
        <time>2017-10-08T12:29:46Z</time>
      </trkpt>
      <trkpt lat="43.1605" lon="6.34259">
        <ele>242.5</ele>
        <time>2017-10-08T12:29:58Z</time>
      </trkpt>
      <trkpt lat="43.16059" lon="6.34263">
        <ele>243.7</ele>
        <time>2017-10-08T12:30:08Z</time>
      </trkpt>
      <trkpt lat="43.16068" lon="6.34267">
        <ele>244.7</ele>
        <time>2017-10-08T12:30:19Z</time>
      </trkpt>
      <trkpt lat="43.16077" lon="6.34271">
        <ele>245.9</ele>
        <time>2017-10-08T12:30:30Z</time>
      </trkpt>
      <trkpt lat="43.16068" lon="6.34276">
        <ele>249.2</ele>
        <time>2017-10-08T12:31:00Z</time>
      </trkpt>
      <trkpt lat="43.16059" lon="6.34277">
        <ele>250.1</ele>
        <time>2017-10-08T12:31:09Z</time>
      </trkpt>
      <trkpt lat="43.1605" lon="6.34277">
        <ele>251.4</ele>
        <time>2017-10-08T12:31:20Z</time>
      </trkpt>
      <trkpt lat="43.16041" lon="6.34282">
        <ele>252.8</ele>
        <time>2017-10-08T12:31:33Z</time>
      </trkpt>
      <trkpt lat="43.16032" lon="6.34286">
        <ele>254.2</ele>
        <time>2017-10-08T12:31:44Z</time>
      </trkpt>
      <trkpt lat="43.16023" lon="6.3429">
        <ele>255</ele>
        <time>2017-10-08T12:31:54Z</time>
      </trkpt>
      <trkpt lat="43.16013" lon="6.3429">
        <ele>255.4</ele>
        <time>2017-10-08T12:32:03Z</time>
      </trkpt>
      <trkpt lat="43.16004" lon="6.34292">
        <ele>255.6</ele>
        <time>2017-10-08T12:32:11Z</time>
      </trkpt>
      <trkpt lat="43.15995" lon="6.34293">
        <ele>255.6</ele>
        <time>2017-10-08T12:32:18Z</time>
      </trkpt>
      <trkpt lat="43.15986" lon="6.34296">
        <ele>255.5</ele>
        <time>2017-10-08T12:32:26Z</time>
      </trkpt>
      <trkpt lat="43.15977" lon="6.34297">
        <ele>255.4</ele>
        <time>2017-10-08T12:32:34Z</time>
      </trkpt>
      <trkpt lat="43.15967" lon="6.34298">
        <ele>255.5</ele>
        <time>2017-10-08T12:32:43Z</time>
      </trkpt>
      <trkpt lat="43.15957" lon="6.34297">
        <ele>255.6</ele>
        <time>2017-10-08T12:32:53Z</time>
      </trkpt>
      <trkpt lat="43.15951" lon="6.34288">
        <ele>256.5</ele>
        <time>2017-10-08T12:33:10Z</time>
      </trkpt>
      <trkpt lat="43.15949" lon="6.34275">
        <ele>257.4</ele>
        <time>2017-10-08T12:33:22Z</time>
      </trkpt>
      <trkpt lat="43.15948" lon="6.34262">
        <ele>258.3</ele>
        <time>2017-10-08T12:33:33Z</time>
      </trkpt>
      <trkpt lat="43.1595" lon="6.3425">
        <ele>259.6</ele>
        <time>2017-10-08T12:33:45Z</time>
      </trkpt>
      <trkpt lat="43.15947" lon="6.34238">
        <ele>260.9</ele>
        <time>2017-10-08T12:33:58Z</time>
      </trkpt>
      <trkpt lat="43.15941" lon="6.34227">
        <ele>261.9</ele>
        <time>2017-10-08T12:34:08Z</time>
      </trkpt>
      <trkpt lat="43.15935" lon="6.34216">
        <ele>262.9</ele>
        <time>2017-10-08T12:34:18Z</time>
      </trkpt>
      <trkpt lat="43.1593" lon="6.34206">
        <ele>263.4</ele>
        <time>2017-10-08T12:34:27Z</time>
      </trkpt>
      <trkpt lat="43.15924" lon="6.34195">
        <ele>264.1</ele>
        <time>2017-10-08T12:34:40Z</time>
      </trkpt>
      <trkpt lat="43.15917" lon="6.34185">
        <ele>265</ele>
        <time>2017-10-08T12:34:50Z</time>
      </trkpt>
      <trkpt lat="43.15909" lon="6.34178">
        <ele>265.8</ele>
        <time>2017-10-08T12:34:59Z</time>
      </trkpt>
      <trkpt lat="43.15901" lon="6.3417">
        <ele>266.2</ele>
        <time>2017-10-08T12:35:08Z</time>
      </trkpt>
      <trkpt lat="43.15895" lon="6.34162">
        <ele>266.5</ele>
        <time>2017-10-08T12:35:17Z</time>
      </trkpt>
      <trkpt lat="43.1589" lon="6.34151">
        <ele>266.7</ele>
        <time>2017-10-08T12:35:28Z</time>
      </trkpt>
      <trkpt lat="43.15885" lon="6.3414">
        <ele>266.8</ele>
        <time>2017-10-08T12:35:38Z</time>
      </trkpt>
      <trkpt lat="43.15882" lon="6.34128">
        <ele>266.9</ele>
        <time>2017-10-08T12:35:52Z</time>
      </trkpt>
      <trkpt lat="43.15877" lon="6.34117">
        <ele>268</ele>
        <time>2017-10-08T12:36:02Z</time>
      </trkpt>
      <trkpt lat="43.15873" lon="6.34104">
        <ele>268.5</ele>
        <time>2017-10-08T12:36:12Z</time>
      </trkpt>
      <trkpt lat="43.15867" lon="6.34095">
        <ele>268.8</ele>
        <time>2017-10-08T12:36:22Z</time>
      </trkpt>
      <trkpt lat="43.15862" lon="6.34084">
        <ele>269.1</ele>
        <time>2017-10-08T12:36:32Z</time>
      </trkpt>
      <trkpt lat="43.15858" lon="6.34072">
        <ele>269.8</ele>
        <time>2017-10-08T12:36:42Z</time>
      </trkpt>
      <trkpt lat="43.15856" lon="6.3406">
        <ele>270.8</ele>
        <time>2017-10-08T12:36:52Z</time>
      </trkpt>
      <trkpt lat="43.15851" lon="6.34049">
        <ele>271.5</ele>
        <time>2017-10-08T12:37:01Z</time>
      </trkpt>
      <trkpt lat="43.15846" lon="6.34039">
        <ele>272.2</ele>
        <time>2017-10-08T12:37:11Z</time>
      </trkpt>
      <trkpt lat="43.15838" lon="6.34031">
        <ele>273.3</ele>
        <time>2017-10-08T12:37:22Z</time>
      </trkpt>
      <trkpt lat="43.15833" lon="6.3402">
        <ele>274.1</ele>
        <time>2017-10-08T12:37:33Z</time>
      </trkpt>
      <trkpt lat="43.15831" lon="6.34007">
        <ele>275.1</ele>
        <time>2017-10-08T12:37:44Z</time>
      </trkpt>
      <trkpt lat="43.15822" lon="6.34004">
        <ele>276.6</ele>
        <time>2017-10-08T12:38:05Z</time>
      </trkpt>
      <trkpt lat="43.15823" lon="6.33992">
        <ele>277.4</ele>
        <time>2017-10-08T12:38:51Z</time>
      </trkpt>
      <trkpt lat="43.15825" lon="6.33979">
        <ele>277.5</ele>
        <time>2017-10-08T12:39:00Z</time>
      </trkpt>
      <trkpt lat="43.15821" lon="6.33966">
        <ele>278</ele>
        <time>2017-10-08T12:39:12Z</time>
      </trkpt>
      <trkpt lat="43.15816" lon="6.33955">
        <ele>278.3</ele>
        <time>2017-10-08T12:39:23Z</time>
      </trkpt>
      <trkpt lat="43.1581" lon="6.33945">
        <ele>278.7</ele>
        <time>2017-10-08T12:39:31Z</time>
      </trkpt>
      <trkpt lat="43.15804" lon="6.33934">
        <ele>279.1</ele>
        <time>2017-10-08T12:39:41Z</time>
      </trkpt>
      <trkpt lat="43.15797" lon="6.33927">
        <ele>279.4</ele>
        <time>2017-10-08T12:39:49Z</time>
      </trkpt>
      <trkpt lat="43.15792" lon="6.33915">
        <ele>279.9</ele>
        <time>2017-10-08T12:39:59Z</time>
      </trkpt>
      <trkpt lat="43.15787" lon="6.33903">
        <ele>280.4</ele>
        <time>2017-10-08T12:40:09Z</time>
      </trkpt>
      <trkpt lat="43.15783" lon="6.33891">
        <ele>280.8</ele>
        <time>2017-10-08T12:40:20Z</time>
      </trkpt>
      <trkpt lat="43.15777" lon="6.3388">
        <ele>281.5</ele>
        <time>2017-10-08T12:40:31Z</time>
      </trkpt>
      <trkpt lat="43.15769" lon="6.33874">
        <ele>282.3</ele>
        <time>2017-10-08T12:40:40Z</time>
      </trkpt>
      <trkpt lat="43.1576" lon="6.33873">
        <ele>283.2</ele>
        <time>2017-10-08T12:40:54Z</time>
      </trkpt>
      <trkpt lat="43.15752" lon="6.33867">
        <ele>284.4</ele>
        <time>2017-10-08T12:42:32Z</time>
      </trkpt>
      <trkpt lat="43.15743" lon="6.33864">
        <ele>285.6</ele>
        <time>2017-10-08T12:42:46Z</time>
      </trkpt>
      <trkpt lat="43.15734" lon="6.33863">
        <ele>286.5</ele>
        <time>2017-10-08T12:42:57Z</time>
      </trkpt>
      <trkpt lat="43.15725" lon="6.33862">
        <ele>287.4</ele>
        <time>2017-10-08T12:43:10Z</time>
      </trkpt>
      <trkpt lat="43.15715" lon="6.3386">
        <ele>288.8</ele>
        <time>2017-10-08T12:43:22Z</time>
      </trkpt>
      <trkpt lat="43.15706" lon="6.3386">
        <ele>290.4</ele>
        <time>2017-10-08T12:43:38Z</time>
      </trkpt>
      <trkpt lat="43.15698" lon="6.33854">
        <ele>290.7</ele>
        <time>2017-10-08T12:43:46Z</time>
      </trkpt>
      <trkpt lat="43.15689" lon="6.33848">
        <ele>291.1</ele>
        <time>2017-10-08T12:43:57Z</time>
      </trkpt>
      <trkpt lat="43.15681" lon="6.33843">
        <ele>291.2</ele>
        <time>2017-10-08T12:44:07Z</time>
      </trkpt>
      <trkpt lat="43.15672" lon="6.33837">
        <ele>291.5</ele>
        <time>2017-10-08T12:44:17Z</time>
      </trkpt>
      <trkpt lat="43.15663" lon="6.33833">
        <ele>292</ele>
        <time>2017-10-08T12:44:26Z</time>
      </trkpt>
      <trkpt lat="43.15654" lon="6.33831">
        <ele>292.8</ele>
        <time>2017-10-08T12:44:35Z</time>
      </trkpt>
      <trkpt lat="43.15645" lon="6.33829">
        <ele>293.6</ele>
        <time>2017-10-08T12:44:43Z</time>
      </trkpt>
      <trkpt lat="43.15636" lon="6.33829">
        <ele>295</ele>
        <time>2017-10-08T12:44:53Z</time>
      </trkpt>
      <trkpt lat="43.15626" lon="6.33831">
        <ele>295.9</ele>
        <time>2017-10-08T12:45:03Z</time>
      </trkpt>
      <trkpt lat="43.15622" lon="6.33843">
        <ele>296.9</ele>
        <time>2017-10-08T12:45:16Z</time>
      </trkpt>
      <trkpt lat="43.15622" lon="6.33856">
        <ele>297.8</ele>
        <time>2017-10-08T12:45:27Z</time>
      </trkpt>
      <trkpt lat="43.15619" lon="6.33868">
        <ele>299.5</ele>
        <time>2017-10-08T12:45:43Z</time>
      </trkpt>
      <trkpt lat="43.15614" lon="6.33879">
        <ele>301.3</ele>
        <time>2017-10-08T12:45:56Z</time>
      </trkpt>
      <trkpt lat="43.15618" lon="6.33891">
        <ele>302.1</ele>
        <time>2017-10-08T12:46:04Z</time>
      </trkpt>
      <trkpt lat="43.15623" lon="6.33903">
        <ele>303.1</ele>
        <time>2017-10-08T12:46:13Z</time>
      </trkpt>
      <trkpt lat="43.15628" lon="6.33912">
        <ele>304.2</ele>
        <time>2017-10-08T12:46:21Z</time>
      </trkpt>
      <trkpt lat="43.15636" lon="6.3392">
        <ele>305.4</ele>
        <time>2017-10-08T12:46:31Z</time>
      </trkpt>
      <trkpt lat="43.15644" lon="6.33926">
        <ele>306.2</ele>
        <time>2017-10-08T12:46:41Z</time>
      </trkpt>
      <trkpt lat="43.15652" lon="6.33933">
        <ele>306.8</ele>
        <time>2017-10-08T12:46:51Z</time>
      </trkpt>
      <trkpt lat="43.15659" lon="6.33941">
        <ele>307.7</ele>
        <time>2017-10-08T12:47:03Z</time>
      </trkpt>
      <trkpt lat="43.15655" lon="6.33953">
        <ele>312.3</ele>
        <time>2017-10-08T12:47:44Z</time>
      </trkpt>
      <trkpt lat="43.15652" lon="6.33964">
        <ele>315.4</ele>
        <time>2017-10-08T12:48:10Z</time>
      </trkpt>
      <trkpt lat="43.15648" lon="6.33976">
        <ele>316.8</ele>
        <time>2017-10-08T12:48:23Z</time>
      </trkpt>
      <trkpt lat="43.15648" lon="6.33989">
        <ele>320.1</ele>
        <time>2017-10-08T12:49:01Z</time>
      </trkpt>
      <trkpt lat="43.15656" lon="6.33996">
        <ele>321.6</ele>
        <time>2017-10-08T12:49:20Z</time>
      </trkpt>
      <trkpt lat="43.15665" lon="6.33994">
        <ele>322.3</ele>
        <time>2017-10-08T12:49:51Z</time>
      </trkpt>
      <trkpt lat="43.15665" lon="6.34007">
        <ele>322.9</ele>
        <time>2017-10-08T12:50:31Z</time>
      </trkpt>
      <trkpt lat="43.15672" lon="6.34016">
        <ele>323.8</ele>
        <time>2017-10-08T12:50:41Z</time>
      </trkpt>
      <trkpt lat="43.15681" lon="6.34021">
        <ele>324.4</ele>
        <time>2017-10-08T12:50:51Z</time>
      </trkpt>
      <trkpt lat="43.15688" lon="6.34029">
        <ele>325.1</ele>
        <time>2017-10-08T12:51:01Z</time>
      </trkpt>
      <trkpt lat="43.15694" lon="6.34038">
        <ele>325.4</ele>
        <time>2017-10-08T12:51:10Z</time>
      </trkpt>
      <trkpt lat="43.157" lon="6.34049">
        <ele>325.6</ele>
        <time>2017-10-08T12:51:19Z</time>
      </trkpt>
      <trkpt lat="43.15703" lon="6.34063">
        <ele>325.6</ele>
        <time>2017-10-08T12:51:29Z</time>
      </trkpt>
      <trkpt lat="43.15704" lon="6.34076">
        <ele>326.1</ele>
        <time>2017-10-08T12:51:43Z</time>
      </trkpt>
      <trkpt lat="43.15702" lon="6.34089">
        <ele>326.2</ele>
        <time>2017-10-08T12:51:55Z</time>
      </trkpt>
      <trkpt lat="43.15697" lon="6.34099">
        <ele>327.5</ele>
        <time>2017-10-08T12:52:15Z</time>
      </trkpt>
      <trkpt lat="43.15688" lon="6.34101">
        <ele>330.5</ele>
        <time>2017-10-08T12:52:42Z</time>
      </trkpt>
      <trkpt lat="43.15679" lon="6.34101">
        <ele>332</ele>
        <time>2017-10-08T12:52:58Z</time>
      </trkpt>
      <trkpt lat="43.1567" lon="6.34099">
        <ele>333.9</ele>
        <time>2017-10-08T12:53:15Z</time>
      </trkpt>
      <trkpt lat="43.15661" lon="6.34092">
        <ele>336</ele>
        <time>2017-10-08T12:54:11Z</time>
      </trkpt>
      <trkpt lat="43.15655" lon="6.34081">
        <ele>336.5</ele>
        <time>2017-10-08T12:54:22Z</time>
      </trkpt>
      <trkpt lat="43.15647" lon="6.34075">
        <ele>337.2</ele>
        <time>2017-10-08T12:54:41Z</time>
      </trkpt>
      <trkpt lat="43.15638" lon="6.34074">
        <ele>336.8</ele>
        <time>2017-10-08T12:54:54Z</time>
      </trkpt>
      <trkpt lat="43.15643" lon="6.34063">
        <ele>335.9</ele>
        <time>2017-10-08T12:58:26Z</time>
      </trkpt>
      <trkpt lat="43.15645" lon="6.3405">
        <ele>335</ele>
        <time>2017-10-08T12:58:39Z</time>
      </trkpt>
      <trkpt lat="43.15641" lon="6.34038">
        <ele>334</ele>
        <time>2017-10-08T12:58:49Z</time>
      </trkpt>
      <trkpt lat="43.15635" lon="6.34028">
        <ele>332.5</ele>
        <time>2017-10-08T12:59:05Z</time>
      </trkpt>
      <trkpt lat="43.15629" lon="6.34019">
        <ele>332</ele>
        <time>2017-10-08T12:59:18Z</time>
      </trkpt>
      <trkpt lat="43.1562" lon="6.34014">
        <ele>332.4</ele>
        <time>2017-10-08T12:59:36Z</time>
      </trkpt>
      <trkpt lat="43.15626" lon="6.34024">
        <ele>331.6</ele>
        <time>2017-10-08T13:05:42Z</time>
      </trkpt>
      <trkpt lat="43.15625" lon="6.34036">
        <ele>329.6</ele>
        <time>2017-10-08T13:06:13Z</time>
      </trkpt>
      <trkpt lat="43.15622" lon="6.34049">
        <ele>328.6</ele>
        <time>2017-10-08T13:08:20Z</time>
      </trkpt>
      <trkpt lat="43.1562" lon="6.34062">
        <ele>328</ele>
        <time>2017-10-08T13:08:34Z</time>
      </trkpt>
      <trkpt lat="43.15617" lon="6.34074">
        <ele>327.2</ele>
        <time>2017-10-08T13:09:18Z</time>
      </trkpt>
      <trkpt lat="43.15616" lon="6.34088">
        <ele>326.8</ele>
        <time>2017-10-08T13:09:34Z</time>
      </trkpt>
      <trkpt lat="43.15616" lon="6.341">
        <ele>325.9</ele>
        <time>2017-10-08T13:09:55Z</time>
      </trkpt>
      <trkpt lat="43.15616" lon="6.34113">
        <ele>325.6</ele>
        <time>2017-10-08T13:10:05Z</time>
      </trkpt>
      <trkpt lat="43.15615" lon="6.34126">
        <ele>324.7</ele>
        <time>2017-10-08T13:10:21Z</time>
      </trkpt>
      <trkpt lat="43.15617" lon="6.34138">
        <ele>323.3</ele>
        <time>2017-10-08T13:10:33Z</time>
      </trkpt>
      <trkpt lat="43.15618" lon="6.3415">
        <ele>320.8</ele>
        <time>2017-10-08T13:10:48Z</time>
      </trkpt>
      <trkpt lat="43.15612" lon="6.34161">
        <ele>317.2</ele>
        <time>2017-10-08T13:11:08Z</time>
      </trkpt>
      <trkpt lat="43.15606" lon="6.3417">
        <ele>314</ele>
        <time>2017-10-08T13:11:25Z</time>
      </trkpt>
      <trkpt lat="43.15598" lon="6.34176">
        <ele>310.8</ele>
        <time>2017-10-08T13:11:41Z</time>
      </trkpt>
      <trkpt lat="43.15589" lon="6.34179">
        <ele>306.8</ele>
        <time>2017-10-08T13:12:04Z</time>
      </trkpt>
      <trkpt lat="43.1558" lon="6.34182">
        <ele>304</ele>
        <time>2017-10-08T13:12:18Z</time>
      </trkpt>
      <trkpt lat="43.15572" lon="6.34188">
        <ele>301</ele>
        <time>2017-10-08T13:12:37Z</time>
      </trkpt>
      <trkpt lat="43.15562" lon="6.3419">
        <ele>299.3</ele>
        <time>2017-10-08T13:12:50Z</time>
      </trkpt>
      <trkpt lat="43.15553" lon="6.34192">
        <ele>296.9</ele>
        <time>2017-10-08T13:13:06Z</time>
      </trkpt>
      <trkpt lat="43.15544" lon="6.34194">
        <ele>294.8</ele>
        <time>2017-10-08T13:13:20Z</time>
      </trkpt>
      <trkpt lat="43.15535" lon="6.34196">
        <ele>292.7</ele>
        <time>2017-10-08T13:13:36Z</time>
      </trkpt>
      <trkpt lat="43.1553" lon="6.34207">
        <ele>289.6</ele>
        <time>2017-10-08T13:14:09Z</time>
      </trkpt>
      <trkpt lat="43.15536" lon="6.34218">
        <ele>288.7</ele>
        <time>2017-10-08T13:14:19Z</time>
      </trkpt>
      <trkpt lat="43.15539" lon="6.3423">
        <ele>287.3</ele>
        <time>2017-10-08T13:14:30Z</time>
      </trkpt>
      <trkpt lat="43.15545" lon="6.3424">
        <ele>285.9</ele>
        <time>2017-10-08T13:14:49Z</time>
      </trkpt>
      <trkpt lat="43.15537" lon="6.34246">
        <ele>283.6</ele>
        <time>2017-10-08T13:15:16Z</time>
      </trkpt>
      <trkpt lat="43.15527" lon="6.34244">
        <ele>281.6</ele>
        <time>2017-10-08T13:15:28Z</time>
      </trkpt>
      <trkpt lat="43.15517" lon="6.34241">
        <ele>279.8</ele>
        <time>2017-10-08T13:15:40Z</time>
      </trkpt>
      <trkpt lat="43.15508" lon="6.34236">
        <ele>278</ele>
        <time>2017-10-08T13:15:53Z</time>
      </trkpt>
      <trkpt lat="43.15501" lon="6.34228">
        <ele>276.3</ele>
        <time>2017-10-08T13:16:05Z</time>
      </trkpt>
      <trkpt lat="43.15494" lon="6.3422">
        <ele>274.5</ele>
        <time>2017-10-08T13:16:19Z</time>
      </trkpt>
      <trkpt lat="43.15486" lon="6.34213">
        <ele>272.3</ele>
        <time>2017-10-08T13:16:33Z</time>
      </trkpt>
      <trkpt lat="43.15477" lon="6.34208">
        <ele>269.2</ele>
        <time>2017-10-08T13:17:07Z</time>
      </trkpt>
      <trkpt lat="43.15473" lon="6.34219">
        <ele>267.8</ele>
        <time>2017-10-08T13:17:28Z</time>
      </trkpt>
      <trkpt lat="43.15467" lon="6.34229">
        <ele>263.9</ele>
        <time>2017-10-08T13:17:52Z</time>
      </trkpt>
      <trkpt lat="43.15461" lon="6.34219">
        <ele>261</ele>
        <time>2017-10-08T13:18:12Z</time>
      </trkpt>
      <trkpt lat="43.15452" lon="6.34217">
        <ele>258</ele>
        <time>2017-10-08T13:18:38Z</time>
      </trkpt>
      <trkpt lat="43.15446" lon="6.34226">
        <ele>255.7</ele>
        <time>2017-10-08T13:18:55Z</time>
      </trkpt>
      <trkpt lat="43.1544" lon="6.34237">
        <ele>253.4</ele>
        <time>2017-10-08T13:19:12Z</time>
      </trkpt>
      <trkpt lat="43.15434" lon="6.34246">
        <ele>251</ele>
        <time>2017-10-08T13:19:31Z</time>
      </trkpt>
      <trkpt lat="43.15424" lon="6.34243">
        <ele>245.4</ele>
        <time>2017-10-08T13:20:11Z</time>
      </trkpt>
      <trkpt lat="43.15422" lon="6.3423">
        <ele>242.4</ele>
        <time>2017-10-08T13:20:39Z</time>
      </trkpt>
      <trkpt lat="43.15416" lon="6.34221">
        <ele>238.4</ele>
        <time>2017-10-08T13:21:10Z</time>
      </trkpt>
      <trkpt lat="43.15409" lon="6.34211">
        <ele>234.2</ele>
        <time>2017-10-08T13:21:53Z</time>
      </trkpt>
      <trkpt lat="43.15406" lon="6.34199">
        <ele>232.5</ele>
        <time>2017-10-08T13:22:14Z</time>
      </trkpt>
      <trkpt lat="43.15402" lon="6.34187">
        <ele>230.8</ele>
        <time>2017-10-08T13:22:29Z</time>
      </trkpt>
      <trkpt lat="43.15396" lon="6.34177">
        <ele>227.8</ele>
        <time>2017-10-08T13:22:55Z</time>
      </trkpt>
      <trkpt lat="43.15389" lon="6.34168">
        <ele>225.7</ele>
        <time>2017-10-08T13:23:09Z</time>
      </trkpt>
      <trkpt lat="43.15381" lon="6.34162">
        <ele>222.5</ele>
        <time>2017-10-08T13:23:29Z</time>
      </trkpt>
      <trkpt lat="43.15374" lon="6.34154">
        <ele>220.5</ele>
        <time>2017-10-08T13:23:41Z</time>
      </trkpt>
      <trkpt lat="43.15366" lon="6.34147">
        <ele>217.7</ele>
        <time>2017-10-08T13:23:57Z</time>
      </trkpt>
      <trkpt lat="43.15358" lon="6.34138">
        <ele>215.3</ele>
        <time>2017-10-08T13:24:10Z</time>
      </trkpt>
      <trkpt lat="43.15351" lon="6.34131">
        <ele>212.5</ele>
        <time>2017-10-08T13:24:28Z</time>
      </trkpt>
      <trkpt lat="43.15344" lon="6.34123">
        <ele>210.6</ele>
        <time>2017-10-08T13:24:44Z</time>
      </trkpt>
      <trkpt lat="43.15339" lon="6.34112">
        <ele>209.2</ele>
        <time>2017-10-08T13:25:02Z</time>
      </trkpt>
      <trkpt lat="43.15333" lon="6.34103">
        <ele>207.1</ele>
        <time>2017-10-08T13:25:24Z</time>
      </trkpt>
      <trkpt lat="43.15329" lon="6.34091">
        <ele>203</ele>
        <time>2017-10-08T13:26:07Z</time>
      </trkpt>
      <trkpt lat="43.15323" lon="6.34082">
        <ele>201.8</ele>
        <time>2017-10-08T13:26:19Z</time>
      </trkpt>
      <trkpt lat="43.15314" lon="6.34087">
        <ele>199.8</ele>
        <time>2017-10-08T13:26:34Z</time>
      </trkpt>
      <trkpt lat="43.15305" lon="6.3409">
        <ele>195.8</ele>
        <time>2017-10-08T13:28:53Z</time>
      </trkpt>
      <trkpt lat="43.15296" lon="6.34091">
        <ele>194.1</ele>
        <time>2017-10-08T13:29:15Z</time>
      </trkpt>
      <trkpt lat="43.15287" lon="6.3409">
        <ele>192.5</ele>
        <time>2017-10-08T13:29:29Z</time>
      </trkpt>
      <trkpt lat="43.15277" lon="6.34091">
        <ele>190</ele>
        <time>2017-10-08T13:29:47Z</time>
      </trkpt>
      <trkpt lat="43.15268" lon="6.34089">
        <ele>187.3</ele>
        <time>2017-10-08T13:30:13Z</time>
      </trkpt>
      <trkpt lat="43.15259" lon="6.34091">
        <ele>186</ele>
        <time>2017-10-08T13:30:38Z</time>
      </trkpt>
      <trkpt lat="43.15253" lon="6.341">
        <ele>183.6</ele>
        <time>2017-10-08T13:31:02Z</time>
      </trkpt>
      <trkpt lat="43.15246" lon="6.34109">
        <ele>183</ele>
        <time>2017-10-08T13:31:12Z</time>
      </trkpt>
      <trkpt lat="43.15239" lon="6.34102">
        <ele>182.4</ele>
        <time>2017-10-08T13:31:26Z</time>
      </trkpt>
      <trkpt lat="43.15231" lon="6.34095">
        <ele>181.7</ele>
        <time>2017-10-08T13:31:36Z</time>
      </trkpt>
      <trkpt lat="43.15223" lon="6.34091">
        <ele>181.1</ele>
        <time>2017-10-08T13:31:51Z</time>
      </trkpt>
      <trkpt lat="43.15221" lon="6.34103">
        <ele>180.9</ele>
        <time>2017-10-08T13:32:07Z</time>
      </trkpt>
      <trkpt lat="43.15215" lon="6.34114">
        <ele>181</ele>
        <time>2017-10-08T13:32:21Z</time>
      </trkpt>
      <trkpt lat="43.15212" lon="6.34126">
        <ele>181.2</ele>
        <time>2017-10-08T13:32:35Z</time>
      </trkpt>
      <trkpt lat="43.15202" lon="6.34132">
        <ele>182.4</ele>
        <time>2017-10-08T13:32:47Z</time>
      </trkpt>
      <trkpt lat="43.152" lon="6.34144">
        <ele>183.5</ele>
        <time>2017-10-08T13:33:26Z</time>
      </trkpt>
      <trkpt lat="43.15209" lon="6.34141">
        <ele>183.4</ele>
        <time>2017-10-08T13:34:18Z</time>
      </trkpt>
      <trkpt lat="43.15212" lon="6.34153">
        <ele>180.5</ele>
        <time>2017-10-08T13:35:05Z</time>
      </trkpt>
      <trkpt lat="43.15204" lon="6.34161">
        <ele>178.4</ele>
        <time>2017-10-08T13:35:20Z</time>
      </trkpt>
      <trkpt lat="43.15197" lon="6.3417">
        <ele>176.6</ele>
        <time>2017-10-08T13:35:34Z</time>
      </trkpt>
      <trkpt lat="43.15188" lon="6.34173">
        <ele>172.9</ele>
        <time>2017-10-08T13:36:01Z</time>
      </trkpt>
      <trkpt lat="43.15183" lon="6.34184">
        <ele>170.9</ele>
        <time>2017-10-08T13:36:17Z</time>
      </trkpt>
      <trkpt lat="43.15188" lon="6.34195">
        <ele>169.6</ele>
        <time>2017-10-08T13:36:25Z</time>
      </trkpt>
      <trkpt lat="43.15193" lon="6.34205">
        <ele>168.5</ele>
        <time>2017-10-08T13:36:33Z</time>
      </trkpt>
      <trkpt lat="43.15199" lon="6.34216">
        <ele>167.1</ele>
        <time>2017-10-08T13:36:42Z</time>
      </trkpt>
      <trkpt lat="43.15205" lon="6.34226">
        <ele>164.2</ele>
        <time>2017-10-08T13:36:59Z</time>
      </trkpt>
      <trkpt lat="43.15203" lon="6.34238">
        <ele>160.9</ele>
        <time>2017-10-08T13:38:03Z</time>
      </trkpt>
      <trkpt lat="43.15209" lon="6.34249">
        <ele>159.8</ele>
        <time>2017-10-08T13:38:16Z</time>
      </trkpt>
      <trkpt lat="43.15202" lon="6.3426">
        <ele>157.8</ele>
        <time>2017-10-08T13:38:29Z</time>
      </trkpt>
      <trkpt lat="43.15193" lon="6.34257">
        <ele>156.8</ele>
        <time>2017-10-08T13:38:35Z</time>
      </trkpt>
      <trkpt lat="43.15186" lon="6.34266">
        <ele>154.9</ele>
        <time>2017-10-08T13:38:45Z</time>
      </trkpt>
      <trkpt lat="43.15186" lon="6.34279">
        <ele>153.5</ele>
        <time>2017-10-08T13:38:54Z</time>
      </trkpt>
      <trkpt lat="43.15187" lon="6.34291">
        <ele>151.5</ele>
        <time>2017-10-08T13:39:17Z</time>
      </trkpt>
      <trkpt lat="43.15183" lon="6.34304">
        <ele>151</ele>
        <time>2017-10-08T13:39:34Z</time>
      </trkpt>
      <trkpt lat="43.15182" lon="6.34316">
        <ele>150.8</ele>
        <time>2017-10-08T13:39:46Z</time>
      </trkpt>
      <trkpt lat="43.15181" lon="6.34329">
        <ele>150.5</ele>
        <time>2017-10-08T13:40:00Z</time>
      </trkpt>
      <trkpt lat="43.1518" lon="6.34341">
        <ele>150.3</ele>
        <time>2017-10-08T13:40:15Z</time>
      </trkpt>
      <trkpt lat="43.15174" lon="6.34351">
        <ele>150.4</ele>
        <time>2017-10-08T13:40:24Z</time>
      </trkpt>
      <trkpt lat="43.15167" lon="6.34359">
        <ele>150.9</ele>
        <time>2017-10-08T13:40:34Z</time>
      </trkpt>
      <trkpt lat="43.15162" lon="6.34371">
        <ele>151.4</ele>
        <time>2017-10-08T13:40:41Z</time>
      </trkpt>
      <trkpt lat="43.15156" lon="6.34381">
        <ele>152</ele>
        <time>2017-10-08T13:40:49Z</time>
      </trkpt>
      <trkpt lat="43.15148" lon="6.34389">
        <ele>152.6</ele>
        <time>2017-10-08T13:40:58Z</time>
      </trkpt>
      <trkpt lat="43.15141" lon="6.34395">
        <ele>153.1</ele>
        <time>2017-10-08T13:41:08Z</time>
      </trkpt>
      <trkpt lat="43.15136" lon="6.34408">
        <ele>153.9</ele>
        <time>2017-10-08T13:41:19Z</time>
      </trkpt>
      <trkpt lat="43.15128" lon="6.34417">
        <ele>154.2</ele>
        <time>2017-10-08T13:41:29Z</time>
      </trkpt>
      <trkpt lat="43.15121" lon="6.34426">
        <ele>154.5</ele>
        <time>2017-10-08T13:41:37Z</time>
      </trkpt>
      <trkpt lat="43.15119" lon="6.34439">
        <ele>154.8</ele>
        <time>2017-10-08T13:41:46Z</time>
      </trkpt>
      <trkpt lat="43.1512" lon="6.34452">
        <ele>155.1</ele>
        <time>2017-10-08T13:41:52Z</time>
      </trkpt>
      <trkpt lat="43.15119" lon="6.34464">
        <ele>155.2</ele>
        <time>2017-10-08T13:42:05Z</time>
      </trkpt>
      <trkpt lat="43.15113" lon="6.34474">
        <ele>154.3</ele>
        <time>2017-10-08T13:42:17Z</time>
      </trkpt>
      <trkpt lat="43.15104" lon="6.34478">
        <ele>152.7</ele>
        <time>2017-10-08T13:42:28Z</time>
      </trkpt>
      <trkpt lat="43.15096" lon="6.34484">
        <ele>151.5</ele>
        <time>2017-10-08T13:42:45Z</time>
      </trkpt>
      <trkpt lat="43.15087" lon="6.34489">
        <ele>150.9</ele>
        <time>2017-10-08T13:42:59Z</time>
      </trkpt>
      <trkpt lat="43.15086" lon="6.34503">
        <ele>150.9</ele>
        <time>2017-10-08T13:46:21Z</time>
      </trkpt>
      <trkpt lat="43.15092" lon="6.34512">
        <ele>150.3</ele>
        <time>2017-10-08T13:47:11Z</time>
      </trkpt>
      <trkpt lat="43.15087" lon="6.34501">
        <ele>150.3</ele>
        <time>2017-10-08T13:47:28Z</time>
      </trkpt>
      <trkpt lat="43.15092" lon="6.3449">
        <ele>151.2</ele>
        <time>2017-10-08T13:50:44Z</time>
      </trkpt>
      <trkpt lat="43.15093" lon="6.34489">
        <ele>151.2</ele>
        <time>2017-10-08T13:50:48Z</time>
      </trkpt>
    </trkseg>
  </trk>
</gpx>